<?xml version="1.0" encoding="UTF-8"?>
<gpx creator="Wikiloc - https://www.wikiloc.com" version="1.1" xmlns="http://www.topografix.com/GPX/1/1" xmlns:xsi="http://www.w3.org/2001/XMLSchema-instance" xsi:schemaLocation="http://www.topografix.com/GPX/1/1 http://www.topografix.com/GPX/1/1/gpx.xsd">
  <trk>
    <name>PR-BA 179 'Senda de los Puentes del Ortigas' (La Haba)</name>
    <cmt>Más información en http://fexme.com/buscar-senderos/</cmt>
    <desc>Más información en http://fexme.com/buscar-senderos/</desc>
    <trkseg>
      <trkpt lat="38.918990" lon="-5.802050">
        <ele>399.1</ele>
        <time>2009-12-17T09:37:15Z</time>
      </trkpt>
      <trkpt lat="38.918940" lon="-5.801900">
        <ele>398.1</ele>
        <time>2009-12-17T09:37:41Z</time>
      </trkpt>
      <trkpt lat="38.918950" lon="-5.801880">
        <ele>397.2</ele>
        <time>2009-12-17T09:37:57Z</time>
      </trkpt>
      <trkpt lat="38.918890" lon="-5.801430">
        <ele>396.7</ele>
        <time>2009-12-17T09:38:24Z</time>
      </trkpt>
      <trkpt lat="38.918700" lon="-5.801090">
        <ele>396.7</ele>
        <time>2009-12-17T09:38:48Z</time>
      </trkpt>
      <trkpt lat="38.918400" lon="-5.800650">
        <ele>396.7</ele>
        <time>2009-12-17T09:39:19Z</time>
      </trkpt>
      <trkpt lat="38.918030" lon="-5.800410">
        <ele>395.7</ele>
        <time>2009-12-17T09:39:49Z</time>
      </trkpt>
      <trkpt lat="38.917850" lon="-5.800330">
        <ele>395.2</ele>
        <time>2009-12-17T09:40:03Z</time>
      </trkpt>
      <trkpt lat="38.917650" lon="-5.800310">
        <ele>394.7</ele>
        <time>2009-12-17T09:40:25Z</time>
      </trkpt>
      <trkpt lat="38.917390" lon="-5.800360">
        <ele>395.2</ele>
        <time>2009-12-17T09:40:42Z</time>
      </trkpt>
      <trkpt lat="38.916990" lon="-5.800330">
        <ele>394.7</ele>
        <time>2009-12-17T09:41:09Z</time>
      </trkpt>
      <trkpt lat="38.916570" lon="-5.800290">
        <ele>393.3</ele>
        <time>2009-12-17T09:41:41Z</time>
      </trkpt>
      <trkpt lat="38.916350" lon="-5.800250">
        <ele>392.4</ele>
        <time>2009-12-17T09:41:56Z</time>
      </trkpt>
      <trkpt lat="38.916120" lon="-5.800200">
        <ele>392.4</ele>
        <time>2009-12-17T09:42:13Z</time>
      </trkpt>
      <trkpt lat="38.915610" lon="-5.800150">
        <ele>391.9</ele>
        <time>2009-12-17T09:42:48Z</time>
      </trkpt>
      <trkpt lat="38.915170" lon="-5.800180">
        <ele>390.4</ele>
        <time>2009-12-17T09:43:18Z</time>
      </trkpt>
      <trkpt lat="38.914990" lon="-5.800190">
        <ele>390.0</ele>
        <time>2009-12-17T09:43:39Z</time>
      </trkpt>
      <trkpt lat="38.914750" lon="-5.800220">
        <ele>389.5</ele>
        <time>2009-12-17T09:44:04Z</time>
      </trkpt>
      <trkpt lat="38.914590" lon="-5.800310">
        <ele>388.5</ele>
        <time>2009-12-17T09:44:42Z</time>
      </trkpt>
      <trkpt lat="38.914170" lon="-5.800260">
        <ele>388.0</ele>
        <time>2009-12-17T09:45:10Z</time>
      </trkpt>
      <trkpt lat="38.913770" lon="-5.800270">
        <ele>388.0</ele>
        <time>2009-12-17T09:45:41Z</time>
      </trkpt>
      <trkpt lat="38.913300" lon="-5.800280">
        <ele>389.0</ele>
        <time>2009-12-17T09:46:15Z</time>
      </trkpt>
      <trkpt lat="38.913080" lon="-5.800000">
        <ele>387.1</ele>
        <time>2009-12-17T09:46:40Z</time>
      </trkpt>
      <trkpt lat="38.913040" lon="-5.799960">
        <ele>386.6</ele>
        <time>2009-12-17T09:46:44Z</time>
      </trkpt>
      <trkpt lat="38.913020" lon="-5.799930">
        <ele>386.1</ele>
        <time>2009-12-17T09:47:13Z</time>
      </trkpt>
      <trkpt lat="38.913040" lon="-5.799920">
        <ele>383.7</ele>
        <time>2009-12-17T09:48:06Z</time>
      </trkpt>
      <trkpt lat="38.913060" lon="-5.799920">
        <ele>380.8</ele>
        <time>2009-12-17T09:49:25Z</time>
      </trkpt>
      <trkpt lat="38.912990" lon="-5.799970">
        <ele>378.4</ele>
        <time>2009-12-17T09:50:18Z</time>
      </trkpt>
      <trkpt lat="38.912990" lon="-5.799960">
        <ele>377.9</ele>
        <time>2009-12-17T09:50:34Z</time>
      </trkpt>
      <trkpt lat="38.912790" lon="-5.799940">
        <ele>378.4</ele>
        <time>2009-12-17T09:50:59Z</time>
      </trkpt>
      <trkpt lat="38.912640" lon="-5.799890">
        <ele>377.0</ele>
        <time>2009-12-17T09:51:26Z</time>
      </trkpt>
      <trkpt lat="38.912330" lon="-5.799680">
        <ele>377.0</ele>
        <time>2009-12-17T09:51:56Z</time>
      </trkpt>
      <trkpt lat="38.912070" lon="-5.799510">
        <ele>376.0</ele>
        <time>2009-12-17T09:52:17Z</time>
      </trkpt>
      <trkpt lat="38.911900" lon="-5.799480">
        <ele>375.5</ele>
        <time>2009-12-17T09:52:45Z</time>
      </trkpt>
      <trkpt lat="38.911900" lon="-5.799500">
        <ele>372.6</ele>
        <time>2009-12-17T09:53:23Z</time>
      </trkpt>
      <trkpt lat="38.911900" lon="-5.799470">
        <ele>371.2</ele>
        <time>2009-12-17T09:54:04Z</time>
      </trkpt>
      <trkpt lat="38.911900" lon="-5.799480">
        <ele>367.8</ele>
        <time>2009-12-17T09:56:03Z</time>
      </trkpt>
      <trkpt lat="38.911900" lon="-5.799480">
        <ele>369.3</ele>
        <time>2009-12-17T09:56:18Z</time>
      </trkpt>
      <trkpt lat="38.911900" lon="-5.799500">
        <ele>367.8</ele>
        <time>2009-12-17T09:56:48Z</time>
      </trkpt>
      <trkpt lat="38.911900" lon="-5.799510">
        <ele>367.4</ele>
        <time>2009-12-17T09:57:13Z</time>
      </trkpt>
      <trkpt lat="38.911890" lon="-5.799500">
        <ele>366.4</ele>
        <time>2009-12-17T09:57:26Z</time>
      </trkpt>
      <trkpt lat="38.911570" lon="-5.799510">
        <ele>366.9</ele>
        <time>2009-12-17T09:57:52Z</time>
      </trkpt>
      <trkpt lat="38.911200" lon="-5.799670">
        <ele>366.9</ele>
        <time>2009-12-17T09:58:26Z</time>
      </trkpt>
      <trkpt lat="38.910970" lon="-5.799780">
        <ele>366.9</ele>
        <time>2009-12-17T09:58:57Z</time>
      </trkpt>
      <trkpt lat="38.910700" lon="-5.799920">
        <ele>366.9</ele>
        <time>2009-12-17T09:59:20Z</time>
      </trkpt>
      <trkpt lat="38.910330" lon="-5.800010">
        <ele>366.4</ele>
        <time>2009-12-17T09:59:47Z</time>
      </trkpt>
      <trkpt lat="38.910250" lon="-5.800020">
        <ele>366.9</ele>
        <time>2009-12-17T09:59:53Z</time>
      </trkpt>
      <trkpt lat="38.909830" lon="-5.800050">
        <ele>366.4</ele>
        <time>2009-12-17T10:00:23Z</time>
      </trkpt>
      <trkpt lat="38.909370" lon="-5.800060">
        <ele>366.9</ele>
        <time>2009-12-17T10:00:57Z</time>
      </trkpt>
      <trkpt lat="38.909310" lon="-5.800050">
        <ele>366.4</ele>
        <time>2009-12-17T10:01:02Z</time>
      </trkpt>
      <trkpt lat="38.908730" lon="-5.800020">
        <ele>366.4</ele>
        <time>2009-12-17T10:01:44Z</time>
      </trkpt>
      <trkpt lat="38.908170" lon="-5.800220">
        <ele>368.3</ele>
        <time>2009-12-17T10:02:26Z</time>
      </trkpt>
      <trkpt lat="38.907840" lon="-5.800340">
        <ele>367.8</ele>
        <time>2009-12-17T10:02:55Z</time>
      </trkpt>
      <trkpt lat="38.907840" lon="-5.800330">
        <ele>365.9</ele>
        <time>2009-12-17T10:03:00Z</time>
      </trkpt>
      <trkpt lat="38.907860" lon="-5.800330">
        <ele>364.0</ele>
        <time>2009-12-17T10:03:56Z</time>
      </trkpt>
      <trkpt lat="38.907800" lon="-5.800360">
        <ele>365.4</ele>
        <time>2009-12-17T10:04:25Z</time>
      </trkpt>
      <trkpt lat="38.907400" lon="-5.800580">
        <ele>366.4</ele>
        <time>2009-12-17T10:04:55Z</time>
      </trkpt>
      <trkpt lat="38.906940" lon="-5.800860">
        <ele>366.9</ele>
        <time>2009-12-17T10:05:31Z</time>
      </trkpt>
      <trkpt lat="38.906590" lon="-5.801040">
        <ele>367.8</ele>
        <time>2009-12-17T10:05:58Z</time>
      </trkpt>
      <trkpt lat="38.906110" lon="-5.801150">
        <ele>367.4</ele>
        <time>2009-12-17T10:06:32Z</time>
      </trkpt>
      <trkpt lat="38.905610" lon="-5.801180">
        <ele>367.4</ele>
        <time>2009-12-17T10:07:07Z</time>
      </trkpt>
      <trkpt lat="38.905230" lon="-5.801200">
        <ele>367.4</ele>
        <time>2009-12-17T10:07:34Z</time>
      </trkpt>
      <trkpt lat="38.904870" lon="-5.801210">
        <ele>367.4</ele>
        <time>2009-12-17T10:08:02Z</time>
      </trkpt>
      <trkpt lat="38.904480" lon="-5.801310">
        <ele>367.4</ele>
        <time>2009-12-17T10:08:34Z</time>
      </trkpt>
      <trkpt lat="38.904220" lon="-5.801410">
        <ele>368.8</ele>
        <time>2009-12-17T10:09:05Z</time>
      </trkpt>
      <trkpt lat="38.904110" lon="-5.801460">
        <ele>368.3</ele>
        <time>2009-12-17T10:09:24Z</time>
      </trkpt>
      <trkpt lat="38.903960" lon="-5.801510">
        <ele>368.8</ele>
        <time>2009-12-17T10:09:50Z</time>
      </trkpt>
      <trkpt lat="38.903490" lon="-5.801680">
        <ele>367.8</ele>
        <time>2009-12-17T10:10:23Z</time>
      </trkpt>
      <trkpt lat="38.903090" lon="-5.801810">
        <ele>371.2</ele>
        <time>2009-12-17T10:10:50Z</time>
      </trkpt>
      <trkpt lat="38.902860" lon="-5.801890">
        <ele>369.3</ele>
        <time>2009-12-17T10:11:16Z</time>
      </trkpt>
      <trkpt lat="38.902640" lon="-5.801960">
        <ele>369.8</ele>
        <time>2009-12-17T10:11:51Z</time>
      </trkpt>
      <trkpt lat="38.902270" lon="-5.802090">
        <ele>371.7</ele>
        <time>2009-12-17T10:12:19Z</time>
      </trkpt>
      <trkpt lat="38.902250" lon="-5.802110">
        <ele>371.7</ele>
        <time>2009-12-17T10:12:21Z</time>
      </trkpt>
      <trkpt lat="38.902270" lon="-5.802150">
        <ele>368.8</ele>
        <time>2009-12-17T10:12:27Z</time>
      </trkpt>
      <trkpt lat="38.902230" lon="-5.802130">
        <ele>370.7</ele>
        <time>2009-12-17T10:12:32Z</time>
      </trkpt>
      <trkpt lat="38.901810" lon="-5.802240">
        <ele>369.8</ele>
        <time>2009-12-17T10:13:02Z</time>
      </trkpt>
      <trkpt lat="38.901360" lon="-5.802410">
        <ele>369.8</ele>
        <time>2009-12-17T10:13:34Z</time>
      </trkpt>
      <trkpt lat="38.900870" lon="-5.802640">
        <ele>366.9</ele>
        <time>2009-12-17T10:14:11Z</time>
      </trkpt>
      <trkpt lat="38.900850" lon="-5.802650">
        <ele>366.9</ele>
        <time>2009-12-17T10:14:12Z</time>
      </trkpt>
      <trkpt lat="38.900400" lon="-5.802860">
        <ele>367.4</ele>
        <time>2009-12-17T10:14:47Z</time>
      </trkpt>
      <trkpt lat="38.900260" lon="-5.802930">
        <ele>368.8</ele>
        <time>2009-12-17T10:14:58Z</time>
      </trkpt>
      <trkpt lat="38.899700" lon="-5.803210">
        <ele>369.8</ele>
        <time>2009-12-17T10:15:41Z</time>
      </trkpt>
      <trkpt lat="38.899280" lon="-5.803420">
        <ele>369.8</ele>
        <time>2009-12-17T10:16:13Z</time>
      </trkpt>
      <trkpt lat="38.898870" lon="-5.803750">
        <ele>368.8</ele>
        <time>2009-12-17T10:16:46Z</time>
      </trkpt>
      <trkpt lat="38.898520" lon="-5.804090">
        <ele>365.9</ele>
        <time>2009-12-17T10:17:17Z</time>
      </trkpt>
      <trkpt lat="38.898430" lon="-5.804210">
        <ele>365.9</ele>
        <time>2009-12-17T10:17:26Z</time>
      </trkpt>
      <trkpt lat="38.898340" lon="-5.804340">
        <ele>366.4</ele>
        <time>2009-12-17T10:17:38Z</time>
      </trkpt>
      <trkpt lat="38.898310" lon="-5.804380">
        <ele>365.9</ele>
        <time>2009-12-17T10:17:46Z</time>
      </trkpt>
      <trkpt lat="38.898310" lon="-5.804370">
        <ele>365.0</ele>
        <time>2009-12-17T10:17:48Z</time>
      </trkpt>
      <trkpt lat="38.898190" lon="-5.804530">
        <ele>363.5</ele>
        <time>2009-12-17T10:18:10Z</time>
      </trkpt>
      <trkpt lat="38.898160" lon="-5.804570">
        <ele>365.0</ele>
        <time>2009-12-17T10:18:13Z</time>
      </trkpt>
      <trkpt lat="38.898110" lon="-5.804640">
        <ele>366.9</ele>
        <time>2009-12-17T10:18:19Z</time>
      </trkpt>
      <trkpt lat="38.898100" lon="-5.804660">
        <ele>363.5</ele>
        <time>2009-12-17T10:18:20Z</time>
      </trkpt>
      <trkpt lat="38.898090" lon="-5.804670">
        <ele>367.8</ele>
        <time>2009-12-17T10:18:21Z</time>
      </trkpt>
      <trkpt lat="38.898050" lon="-5.804720">
        <ele>364.5</ele>
        <time>2009-12-17T10:18:25Z</time>
      </trkpt>
      <trkpt lat="38.897990" lon="-5.804820">
        <ele>366.4</ele>
        <time>2009-12-17T10:18:32Z</time>
      </trkpt>
      <trkpt lat="38.897900" lon="-5.804910">
        <ele>366.9</ele>
        <time>2009-12-17T10:18:40Z</time>
      </trkpt>
      <trkpt lat="38.897480" lon="-5.805290">
        <ele>365.9</ele>
        <time>2009-12-17T10:19:16Z</time>
      </trkpt>
      <trkpt lat="38.896980" lon="-5.805530">
        <ele>367.8</ele>
        <time>2009-12-17T10:19:54Z</time>
      </trkpt>
      <trkpt lat="38.896570" lon="-5.805700">
        <ele>367.4</ele>
        <time>2009-12-17T10:20:25Z</time>
      </trkpt>
      <trkpt lat="38.896480" lon="-5.805730">
        <ele>367.8</ele>
        <time>2009-12-17T10:20:32Z</time>
      </trkpt>
      <trkpt lat="38.896320" lon="-5.805820">
        <ele>366.9</ele>
        <time>2009-12-17T10:21:00Z</time>
      </trkpt>
      <trkpt lat="38.896320" lon="-5.805820">
        <ele>368.3</ele>
        <time>2009-12-17T10:21:20Z</time>
      </trkpt>
      <trkpt lat="38.896020" lon="-5.805980">
        <ele>367.8</ele>
        <time>2009-12-17T10:21:46Z</time>
      </trkpt>
      <trkpt lat="38.895560" lon="-5.806310">
        <ele>366.9</ele>
        <time>2009-12-17T10:22:22Z</time>
      </trkpt>
      <trkpt lat="38.895170" lon="-5.806610">
        <ele>363.5</ele>
        <time>2009-12-17T10:22:53Z</time>
      </trkpt>
      <trkpt lat="38.894660" lon="-5.806940">
        <ele>363.0</ele>
        <time>2009-12-17T10:23:33Z</time>
      </trkpt>
      <trkpt lat="38.894380" lon="-5.807120">
        <ele>362.1</ele>
        <time>2009-12-17T10:23:56Z</time>
      </trkpt>
      <trkpt lat="38.893850" lon="-5.807370">
        <ele>361.6</ele>
        <time>2009-12-17T10:24:36Z</time>
      </trkpt>
      <trkpt lat="38.893290" lon="-5.807550">
        <ele>362.1</ele>
        <time>2009-12-17T10:25:17Z</time>
      </trkpt>
      <trkpt lat="38.892800" lon="-5.807720">
        <ele>361.1</ele>
        <time>2009-12-17T10:25:53Z</time>
      </trkpt>
      <trkpt lat="38.892340" lon="-5.808070">
        <ele>360.2</ele>
        <time>2009-12-17T10:26:30Z</time>
      </trkpt>
      <trkpt lat="38.891920" lon="-5.808390">
        <ele>357.7</ele>
        <time>2009-12-17T10:27:04Z</time>
      </trkpt>
      <trkpt lat="38.891670" lon="-5.808550">
        <ele>357.7</ele>
        <time>2009-12-17T10:27:24Z</time>
      </trkpt>
      <trkpt lat="38.891590" lon="-5.808630">
        <ele>355.3</ele>
        <time>2009-12-17T10:27:32Z</time>
      </trkpt>
      <trkpt lat="38.891430" lon="-5.808680">
        <ele>354.4</ele>
        <time>2009-12-17T10:29:10Z</time>
      </trkpt>
      <trkpt lat="38.891390" lon="-5.808710">
        <ele>353.9</ele>
        <time>2009-12-17T10:29:37Z</time>
      </trkpt>
      <trkpt lat="38.891390" lon="-5.808720">
        <ele>353.9</ele>
        <time>2009-12-17T10:29:38Z</time>
      </trkpt>
      <trkpt lat="38.891210" lon="-5.808840">
        <ele>352.0</ele>
        <time>2009-12-17T10:32:31Z</time>
      </trkpt>
      <trkpt lat="38.891000" lon="-5.808960">
        <ele>353.4</ele>
        <time>2009-12-17T10:33:05Z</time>
      </trkpt>
      <trkpt lat="38.890520" lon="-5.809290">
        <ele>351.0</ele>
        <time>2009-12-17T10:33:42Z</time>
      </trkpt>
      <trkpt lat="38.890310" lon="-5.809310">
        <ele>350.6</ele>
        <time>2009-12-17T10:34:09Z</time>
      </trkpt>
      <trkpt lat="38.890350" lon="-5.809300">
        <ele>350.6</ele>
        <time>2009-12-17T10:34:37Z</time>
      </trkpt>
      <trkpt lat="38.890240" lon="-5.809300">
        <ele>348.1</ele>
        <time>2009-12-17T10:37:55Z</time>
      </trkpt>
      <trkpt lat="38.890220" lon="-5.809340">
        <ele>349.1</ele>
        <time>2009-12-17T10:37:59Z</time>
      </trkpt>
      <trkpt lat="38.889680" lon="-5.809490">
        <ele>347.2</ele>
        <time>2009-12-17T10:38:38Z</time>
      </trkpt>
      <trkpt lat="38.889670" lon="-5.809490">
        <ele>346.7</ele>
        <time>2009-12-17T10:38:49Z</time>
      </trkpt>
      <trkpt lat="38.889660" lon="-5.809510">
        <ele>346.7</ele>
        <time>2009-12-17T10:39:14Z</time>
      </trkpt>
      <trkpt lat="38.889590" lon="-5.809520">
        <ele>346.7</ele>
        <time>2009-12-17T10:40:02Z</time>
      </trkpt>
      <trkpt lat="38.889170" lon="-5.809670">
        <ele>345.2</ele>
        <time>2009-12-17T10:40:33Z</time>
      </trkpt>
      <trkpt lat="38.888740" lon="-5.809870">
        <ele>346.2</ele>
        <time>2009-12-17T10:41:05Z</time>
      </trkpt>
      <trkpt lat="38.888270" lon="-5.810080">
        <ele>344.8</ele>
        <time>2009-12-17T10:41:39Z</time>
      </trkpt>
      <trkpt lat="38.887740" lon="-5.810250">
        <ele>343.3</ele>
        <time>2009-12-17T10:42:17Z</time>
      </trkpt>
      <trkpt lat="38.887680" lon="-5.810260">
        <ele>342.4</ele>
        <time>2009-12-17T10:42:21Z</time>
      </trkpt>
      <trkpt lat="38.887190" lon="-5.810370">
        <ele>342.8</ele>
        <time>2009-12-17T10:42:55Z</time>
      </trkpt>
      <trkpt lat="38.886950" lon="-5.810460">
        <ele>342.4</ele>
        <time>2009-12-17T10:43:14Z</time>
      </trkpt>
      <trkpt lat="38.886830" lon="-5.810510">
        <ele>343.8</ele>
        <time>2009-12-17T10:43:24Z</time>
      </trkpt>
      <trkpt lat="38.886310" lon="-5.810730">
        <ele>341.4</ele>
        <time>2009-12-17T10:44:01Z</time>
      </trkpt>
      <trkpt lat="38.886040" lon="-5.810830">
        <ele>340.4</ele>
        <time>2009-12-17T10:44:30Z</time>
      </trkpt>
      <trkpt lat="38.886030" lon="-5.810820">
        <ele>340.9</ele>
        <time>2009-12-17T10:44:32Z</time>
      </trkpt>
      <trkpt lat="38.885980" lon="-5.810810">
        <ele>340.9</ele>
        <time>2009-12-17T10:44:36Z</time>
      </trkpt>
      <trkpt lat="38.885650" lon="-5.810700">
        <ele>341.9</ele>
        <time>2009-12-17T10:45:01Z</time>
      </trkpt>
      <trkpt lat="38.885170" lon="-5.810570">
        <ele>341.4</ele>
        <time>2009-12-17T10:45:37Z</time>
      </trkpt>
      <trkpt lat="38.885040" lon="-5.810540">
        <ele>344.8</ele>
        <time>2009-12-17T10:45:47Z</time>
      </trkpt>
      <trkpt lat="38.884530" lon="-5.810480">
        <ele>345.2</ele>
        <time>2009-12-17T10:46:24Z</time>
      </trkpt>
      <trkpt lat="38.884420" lon="-5.810480">
        <ele>346.7</ele>
        <time>2009-12-17T10:46:42Z</time>
      </trkpt>
      <trkpt lat="38.884540" lon="-5.810460">
        <ele>345.7</ele>
        <time>2009-12-17T10:47:23Z</time>
      </trkpt>
      <trkpt lat="38.884320" lon="-5.810480">
        <ele>345.2</ele>
        <time>2009-12-17T10:48:31Z</time>
      </trkpt>
      <trkpt lat="38.884260" lon="-5.810480">
        <ele>346.2</ele>
        <time>2009-12-17T10:48:36Z</time>
      </trkpt>
      <trkpt lat="38.884200" lon="-5.810480">
        <ele>346.2</ele>
        <time>2009-12-17T10:48:56Z</time>
      </trkpt>
      <trkpt lat="38.884210" lon="-5.810470">
        <ele>344.8</ele>
        <time>2009-12-17T10:49:25Z</time>
      </trkpt>
      <trkpt lat="38.883990" lon="-5.810530">
        <ele>347.7</ele>
        <time>2009-12-17T10:50:11Z</time>
      </trkpt>
      <trkpt lat="38.883730" lon="-5.810560">
        <ele>347.7</ele>
        <time>2009-12-17T10:50:33Z</time>
      </trkpt>
      <trkpt lat="38.883390" lon="-5.810600">
        <ele>350.6</ele>
        <time>2009-12-17T10:51:01Z</time>
      </trkpt>
      <trkpt lat="38.883230" lon="-5.810590">
        <ele>349.1</ele>
        <time>2009-12-17T10:51:28Z</time>
      </trkpt>
      <trkpt lat="38.883240" lon="-5.810590">
        <ele>349.6</ele>
        <time>2009-12-17T10:51:31Z</time>
      </trkpt>
      <trkpt lat="38.883340" lon="-5.810570">
        <ele>349.1</ele>
        <time>2009-12-17T10:51:39Z</time>
      </trkpt>
      <trkpt lat="38.883350" lon="-5.810550">
        <ele>349.1</ele>
        <time>2009-12-17T10:51:56Z</time>
      </trkpt>
      <trkpt lat="38.883340" lon="-5.810580">
        <ele>348.6</ele>
        <time>2009-12-17T10:52:09Z</time>
      </trkpt>
      <trkpt lat="38.883220" lon="-5.810570">
        <ele>348.1</ele>
        <time>2009-12-17T10:52:36Z</time>
      </trkpt>
      <trkpt lat="38.883220" lon="-5.810560">
        <ele>347.7</ele>
        <time>2009-12-17T10:53:37Z</time>
      </trkpt>
      <trkpt lat="38.883090" lon="-5.810560">
        <ele>346.2</ele>
        <time>2009-12-17T10:54:12Z</time>
      </trkpt>
      <trkpt lat="38.882830" lon="-5.810570">
        <ele>346.2</ele>
        <time>2009-12-17T10:54:40Z</time>
      </trkpt>
      <trkpt lat="38.882830" lon="-5.810580">
        <ele>345.7</ele>
        <time>2009-12-17T10:55:08Z</time>
      </trkpt>
      <trkpt lat="38.882840" lon="-5.810570">
        <ele>345.7</ele>
        <time>2009-12-17T10:55:47Z</time>
      </trkpt>
      <trkpt lat="38.882590" lon="-5.810540">
        <ele>345.7</ele>
        <time>2009-12-17T10:56:20Z</time>
      </trkpt>
      <trkpt lat="38.882340" lon="-5.810460">
        <ele>343.8</ele>
        <time>2009-12-17T10:56:39Z</time>
      </trkpt>
      <trkpt lat="38.881810" lon="-5.810270">
        <ele>341.9</ele>
        <time>2009-12-17T10:57:18Z</time>
      </trkpt>
      <trkpt lat="38.881310" lon="-5.810080">
        <ele>341.4</ele>
        <time>2009-12-17T10:57:54Z</time>
      </trkpt>
      <trkpt lat="38.880820" lon="-5.809870">
        <ele>340.9</ele>
        <time>2009-12-17T10:58:30Z</time>
      </trkpt>
      <trkpt lat="38.880410" lon="-5.809720">
        <ele>340.9</ele>
        <time>2009-12-17T10:59:00Z</time>
      </trkpt>
      <trkpt lat="38.880180" lon="-5.809620">
        <ele>341.4</ele>
        <time>2009-12-17T10:59:21Z</time>
      </trkpt>
      <trkpt lat="38.880030" lon="-5.809560">
        <ele>343.8</ele>
        <time>2009-12-17T10:59:33Z</time>
      </trkpt>
      <trkpt lat="38.879860" lon="-5.809530">
        <ele>344.8</ele>
        <time>2009-12-17T10:59:56Z</time>
      </trkpt>
      <trkpt lat="38.879850" lon="-5.809530">
        <ele>344.8</ele>
        <time>2009-12-17T11:00:34Z</time>
      </trkpt>
      <trkpt lat="38.879590" lon="-5.809490">
        <ele>345.7</ele>
        <time>2009-12-17T11:00:55Z</time>
      </trkpt>
      <trkpt lat="38.879450" lon="-5.809440">
        <ele>345.7</ele>
        <time>2009-12-17T11:01:17Z</time>
      </trkpt>
      <trkpt lat="38.879550" lon="-5.809490">
        <ele>344.3</ele>
        <time>2009-12-17T11:02:30Z</time>
      </trkpt>
      <trkpt lat="38.879550" lon="-5.809490">
        <ele>346.2</ele>
        <time>2009-12-17T11:02:34Z</time>
      </trkpt>
      <trkpt lat="38.879540" lon="-5.809510">
        <ele>345.2</ele>
        <time>2009-12-17T11:02:55Z</time>
      </trkpt>
      <trkpt lat="38.879540" lon="-5.809500">
        <ele>345.7</ele>
        <time>2009-12-17T11:03:21Z</time>
      </trkpt>
      <trkpt lat="38.879540" lon="-5.809470">
        <ele>346.2</ele>
        <time>2009-12-17T11:03:54Z</time>
      </trkpt>
      <trkpt lat="38.879550" lon="-5.809480">
        <ele>345.2</ele>
        <time>2009-12-17T11:04:39Z</time>
      </trkpt>
      <trkpt lat="38.879260" lon="-5.809410">
        <ele>344.3</ele>
        <time>2009-12-17T11:05:13Z</time>
      </trkpt>
      <trkpt lat="38.879150" lon="-5.809400">
        <ele>344.8</ele>
        <time>2009-12-17T11:05:35Z</time>
      </trkpt>
      <trkpt lat="38.879010" lon="-5.809380">
        <ele>346.2</ele>
        <time>2009-12-17T11:06:32Z</time>
      </trkpt>
      <trkpt lat="38.878770" lon="-5.809390">
        <ele>347.2</ele>
        <time>2009-12-17T11:06:51Z</time>
      </trkpt>
      <trkpt lat="38.878460" lon="-5.809330">
        <ele>345.7</ele>
        <time>2009-12-17T11:07:14Z</time>
      </trkpt>
      <trkpt lat="38.877980" lon="-5.809210">
        <ele>346.2</ele>
        <time>2009-12-17T11:07:48Z</time>
      </trkpt>
      <trkpt lat="38.877950" lon="-5.809200">
        <ele>346.2</ele>
        <time>2009-12-17T11:08:14Z</time>
      </trkpt>
      <trkpt lat="38.877650" lon="-5.809140">
        <ele>347.2</ele>
        <time>2009-12-17T11:08:50Z</time>
      </trkpt>
      <trkpt lat="38.877310" lon="-5.809160">
        <ele>348.6</ele>
        <time>2009-12-17T11:09:16Z</time>
      </trkpt>
      <trkpt lat="38.876970" lon="-5.809220">
        <ele>350.6</ele>
        <time>2009-12-17T11:09:44Z</time>
      </trkpt>
      <trkpt lat="38.876810" lon="-5.809220">
        <ele>351.0</ele>
        <time>2009-12-17T11:10:13Z</time>
      </trkpt>
      <trkpt lat="38.876500" lon="-5.809260">
        <ele>352.5</ele>
        <time>2009-12-17T11:10:38Z</time>
      </trkpt>
      <trkpt lat="38.876320" lon="-5.809240">
        <ele>355.3</ele>
        <time>2009-12-17T11:11:01Z</time>
      </trkpt>
      <trkpt lat="38.876320" lon="-5.809240">
        <ele>355.3</ele>
        <time>2009-12-17T11:11:10Z</time>
      </trkpt>
      <trkpt lat="38.876320" lon="-5.809260">
        <ele>354.9</ele>
        <time>2009-12-17T11:11:15Z</time>
      </trkpt>
      <trkpt lat="38.876260" lon="-5.809290">
        <ele>353.9</ele>
        <time>2009-12-17T11:11:21Z</time>
      </trkpt>
      <trkpt lat="38.876160" lon="-5.809300">
        <ele>353.9</ele>
        <time>2009-12-17T11:11:28Z</time>
      </trkpt>
      <trkpt lat="38.876100" lon="-5.809310">
        <ele>352.5</ele>
        <time>2009-12-17T11:11:33Z</time>
      </trkpt>
      <trkpt lat="38.876050" lon="-5.809310">
        <ele>352.5</ele>
        <time>2009-12-17T11:11:42Z</time>
      </trkpt>
      <trkpt lat="38.876120" lon="-5.809310">
        <ele>353.4</ele>
        <time>2009-12-17T11:12:04Z</time>
      </trkpt>
      <trkpt lat="38.876090" lon="-5.809320">
        <ele>352.9</ele>
        <time>2009-12-17T11:12:22Z</time>
      </trkpt>
      <trkpt lat="38.876070" lon="-5.809310">
        <ele>352.0</ele>
        <time>2009-12-17T11:12:50Z</time>
      </trkpt>
      <trkpt lat="38.875800" lon="-5.809350">
        <ele>350.6</ele>
        <time>2009-12-17T11:13:17Z</time>
      </trkpt>
      <trkpt lat="38.875520" lon="-5.809440">
        <ele>349.1</ele>
        <time>2009-12-17T11:14:02Z</time>
      </trkpt>
      <trkpt lat="38.875160" lon="-5.809630">
        <ele>348.1</ele>
        <time>2009-12-17T11:14:30Z</time>
      </trkpt>
      <trkpt lat="38.874820" lon="-5.809790">
        <ele>347.2</ele>
        <time>2009-12-17T11:14:56Z</time>
      </trkpt>
      <trkpt lat="38.874480" lon="-5.809890">
        <ele>347.2</ele>
        <time>2009-12-17T11:15:21Z</time>
      </trkpt>
      <trkpt lat="38.873990" lon="-5.809890">
        <ele>348.6</ele>
        <time>2009-12-17T11:15:56Z</time>
      </trkpt>
      <trkpt lat="38.873500" lon="-5.809920">
        <ele>347.7</ele>
        <time>2009-12-17T11:16:31Z</time>
      </trkpt>
      <trkpt lat="38.872960" lon="-5.810030">
        <ele>347.7</ele>
        <time>2009-12-17T11:17:08Z</time>
      </trkpt>
      <trkpt lat="38.872490" lon="-5.810120">
        <ele>347.2</ele>
        <time>2009-12-17T11:17:41Z</time>
      </trkpt>
      <trkpt lat="38.871950" lon="-5.810180">
        <ele>347.2</ele>
        <time>2009-12-17T11:18:18Z</time>
      </trkpt>
      <trkpt lat="38.871480" lon="-5.810360">
        <ele>347.2</ele>
        <time>2009-12-17T11:18:53Z</time>
      </trkpt>
      <trkpt lat="38.871000" lon="-5.810530">
        <ele>348.1</ele>
        <time>2009-12-17T11:19:28Z</time>
      </trkpt>
      <trkpt lat="38.870710" lon="-5.810580">
        <ele>348.6</ele>
        <time>2009-12-17T11:19:53Z</time>
      </trkpt>
      <trkpt lat="38.870270" lon="-5.810620">
        <ele>351.0</ele>
        <time>2009-12-17T11:20:25Z</time>
      </trkpt>
      <trkpt lat="38.869870" lon="-5.810590">
        <ele>352.5</ele>
        <time>2009-12-17T11:20:55Z</time>
      </trkpt>
      <trkpt lat="38.869400" lon="-5.810670">
        <ele>353.9</ele>
        <time>2009-12-17T11:21:29Z</time>
      </trkpt>
      <trkpt lat="38.868910" lon="-5.810650">
        <ele>352.5</ele>
        <time>2009-12-17T11:22:04Z</time>
      </trkpt>
      <trkpt lat="38.868480" lon="-5.810680">
        <ele>351.0</ele>
        <time>2009-12-17T11:22:34Z</time>
      </trkpt>
      <trkpt lat="38.868130" lon="-5.810780">
        <ele>347.7</ele>
        <time>2009-12-17T11:22:59Z</time>
      </trkpt>
      <trkpt lat="38.867630" lon="-5.811010">
        <ele>347.2</ele>
        <time>2009-12-17T11:23:36Z</time>
      </trkpt>
      <trkpt lat="38.867280" lon="-5.811340">
        <ele>347.7</ele>
        <time>2009-12-17T11:24:08Z</time>
      </trkpt>
      <trkpt lat="38.867200" lon="-5.811390">
        <ele>347.7</ele>
        <time>2009-12-17T11:24:15Z</time>
      </trkpt>
      <trkpt lat="38.866850" lon="-5.811660">
        <ele>347.2</ele>
        <time>2009-12-17T11:24:44Z</time>
      </trkpt>
      <trkpt lat="38.866380" lon="-5.811960">
        <ele>344.8</ele>
        <time>2009-12-17T11:25:21Z</time>
      </trkpt>
      <trkpt lat="38.866040" lon="-5.812180">
        <ele>342.8</ele>
        <time>2009-12-17T11:25:49Z</time>
      </trkpt>
      <trkpt lat="38.865640" lon="-5.812380">
        <ele>342.8</ele>
        <time>2009-12-17T11:26:22Z</time>
      </trkpt>
      <trkpt lat="38.865410" lon="-5.812320">
        <ele>340.9</ele>
        <time>2009-12-17T11:26:40Z</time>
      </trkpt>
      <trkpt lat="38.865060" lon="-5.812320">
        <ele>337.6</ele>
        <time>2009-12-17T11:27:05Z</time>
      </trkpt>
      <trkpt lat="38.864790" lon="-5.812430">
        <ele>334.2</ele>
        <time>2009-12-17T11:27:26Z</time>
      </trkpt>
      <trkpt lat="38.864530" lon="-5.812740">
        <ele>331.8</ele>
        <time>2009-12-17T11:27:56Z</time>
      </trkpt>
      <trkpt lat="38.864540" lon="-5.812730">
        <ele>332.3</ele>
        <time>2009-12-17T11:28:40Z</time>
      </trkpt>
      <trkpt lat="38.864550" lon="-5.812730">
        <ele>330.3</ele>
        <time>2009-12-17T11:28:56Z</time>
      </trkpt>
      <trkpt lat="38.864490" lon="-5.812730">
        <ele>330.3</ele>
        <time>2009-12-17T11:29:28Z</time>
      </trkpt>
      <trkpt lat="38.864080" lon="-5.812790">
        <ele>329.4</ele>
        <time>2009-12-17T11:29:59Z</time>
      </trkpt>
      <trkpt lat="38.863570" lon="-5.812830">
        <ele>327.9</ele>
        <time>2009-12-17T11:30:34Z</time>
      </trkpt>
      <trkpt lat="38.863120" lon="-5.813030">
        <ele>326.5</ele>
        <time>2009-12-17T11:31:08Z</time>
      </trkpt>
      <trkpt lat="38.862740" lon="-5.813400">
        <ele>326.0</ele>
        <time>2009-12-17T11:31:42Z</time>
      </trkpt>
      <trkpt lat="38.862640" lon="-5.813480">
        <ele>324.1</ele>
        <time>2009-12-17T11:31:50Z</time>
      </trkpt>
      <trkpt lat="38.862260" lon="-5.813470">
        <ele>322.7</ele>
        <time>2009-12-17T11:32:18Z</time>
      </trkpt>
      <trkpt lat="38.862220" lon="-5.813450">
        <ele>321.7</ele>
        <time>2009-12-17T11:32:21Z</time>
      </trkpt>
      <trkpt lat="38.862040" lon="-5.813400">
        <ele>319.8</ele>
        <time>2009-12-17T11:32:34Z</time>
      </trkpt>
      <trkpt lat="38.861680" lon="-5.813510">
        <ele>317.8</ele>
        <time>2009-12-17T11:33:01Z</time>
      </trkpt>
      <trkpt lat="38.861330" lon="-5.813730">
        <ele>314.5</ele>
        <time>2009-12-17T11:33:30Z</time>
      </trkpt>
      <trkpt lat="38.861250" lon="-5.813900">
        <ele>314.5</ele>
        <time>2009-12-17T11:35:30Z</time>
      </trkpt>
      <trkpt lat="38.861150" lon="-5.813970">
        <ele>312.6</ele>
        <time>2009-12-17T11:36:01Z</time>
      </trkpt>
      <trkpt lat="38.861130" lon="-5.813990">
        <ele>312.1</ele>
        <time>2009-12-17T11:36:03Z</time>
      </trkpt>
      <trkpt lat="38.861110" lon="-5.814130">
        <ele>311.1</ele>
        <time>2009-12-17T11:36:25Z</time>
      </trkpt>
      <trkpt lat="38.861070" lon="-5.814120">
        <ele>310.7</ele>
        <time>2009-12-17T11:36:38Z</time>
      </trkpt>
      <trkpt lat="38.861020" lon="-5.814160">
        <ele>309.7</ele>
        <time>2009-12-17T11:36:43Z</time>
      </trkpt>
      <trkpt lat="38.861010" lon="-5.814210">
        <ele>309.7</ele>
        <time>2009-12-17T11:37:09Z</time>
      </trkpt>
      <trkpt lat="38.861080" lon="-5.814110">
        <ele>310.2</ele>
        <time>2009-12-17T11:37:18Z</time>
      </trkpt>
      <trkpt lat="38.861180" lon="-5.814130">
        <ele>312.1</ele>
        <time>2009-12-17T11:37:42Z</time>
      </trkpt>
      <trkpt lat="38.861180" lon="-5.814130">
        <ele>311.6</ele>
        <time>2009-12-17T11:37:50Z</time>
      </trkpt>
      <trkpt lat="38.861160" lon="-5.814240">
        <ele>311.1</ele>
        <time>2009-12-17T11:37:56Z</time>
      </trkpt>
      <trkpt lat="38.861200" lon="-5.814600">
        <ele>310.7</ele>
        <time>2009-12-17T11:38:22Z</time>
      </trkpt>
      <trkpt lat="38.861190" lon="-5.814600">
        <ele>310.7</ele>
        <time>2009-12-17T11:38:37Z</time>
      </trkpt>
      <trkpt lat="38.861150" lon="-5.814630">
        <ele>310.2</ele>
        <time>2009-12-17T11:38:40Z</time>
      </trkpt>
      <trkpt lat="38.861090" lon="-5.814860">
        <ele>311.1</ele>
        <time>2009-12-17T11:38:57Z</time>
      </trkpt>
      <trkpt lat="38.861060" lon="-5.814910">
        <ele>312.1</ele>
        <time>2009-12-17T11:39:24Z</time>
      </trkpt>
      <trkpt lat="38.861080" lon="-5.814960">
        <ele>312.1</ele>
        <time>2009-12-17T11:39:31Z</time>
      </trkpt>
      <trkpt lat="38.861090" lon="-5.814980">
        <ele>312.1</ele>
        <time>2009-12-17T11:39:33Z</time>
      </trkpt>
      <trkpt lat="38.861110" lon="-5.814990">
        <ele>311.6</ele>
        <time>2009-12-17T11:39:35Z</time>
      </trkpt>
      <trkpt lat="38.861100" lon="-5.815030">
        <ele>312.6</ele>
        <time>2009-12-17T11:39:38Z</time>
      </trkpt>
      <trkpt lat="38.861100" lon="-5.815090">
        <ele>312.6</ele>
        <time>2009-12-17T11:39:42Z</time>
      </trkpt>
      <trkpt lat="38.861060" lon="-5.815360">
        <ele>312.1</ele>
        <time>2009-12-17T11:40:01Z</time>
      </trkpt>
      <trkpt lat="38.861060" lon="-5.815390">
        <ele>312.1</ele>
        <time>2009-12-17T11:40:03Z</time>
      </trkpt>
      <trkpt lat="38.861070" lon="-5.815420">
        <ele>311.1</ele>
        <time>2009-12-17T11:40:06Z</time>
      </trkpt>
      <trkpt lat="38.861090" lon="-5.815490">
        <ele>311.6</ele>
        <time>2009-12-17T11:40:34Z</time>
      </trkpt>
      <trkpt lat="38.861090" lon="-5.815520">
        <ele>310.7</ele>
        <time>2009-12-17T11:40:37Z</time>
      </trkpt>
      <trkpt lat="38.861140" lon="-5.815670">
        <ele>308.2</ele>
        <time>2009-12-17T11:40:58Z</time>
      </trkpt>
      <trkpt lat="38.861220" lon="-5.815950">
        <ele>310.2</ele>
        <time>2009-12-17T11:41:28Z</time>
      </trkpt>
      <trkpt lat="38.861340" lon="-5.816360">
        <ele>311.1</ele>
        <time>2009-12-17T11:41:54Z</time>
      </trkpt>
      <trkpt lat="38.861410" lon="-5.816840">
        <ele>309.7</ele>
        <time>2009-12-17T11:42:22Z</time>
      </trkpt>
      <trkpt lat="38.861490" lon="-5.817030">
        <ele>306.8</ele>
        <time>2009-12-17T11:42:34Z</time>
      </trkpt>
      <trkpt lat="38.861510" lon="-5.817080">
        <ele>310.2</ele>
        <time>2009-12-17T11:42:37Z</time>
      </trkpt>
      <trkpt lat="38.861570" lon="-5.817450">
        <ele>310.2</ele>
        <time>2009-12-17T11:43:00Z</time>
      </trkpt>
      <trkpt lat="38.861680" lon="-5.817670">
        <ele>310.7</ele>
        <time>2009-12-17T11:43:17Z</time>
      </trkpt>
      <trkpt lat="38.861790" lon="-5.817850">
        <ele>310.2</ele>
        <time>2009-12-17T11:43:34Z</time>
      </trkpt>
      <trkpt lat="38.861920" lon="-5.818020">
        <ele>310.2</ele>
        <time>2009-12-17T11:43:47Z</time>
      </trkpt>
      <trkpt lat="38.862210" lon="-5.818330">
        <ele>308.2</ele>
        <time>2009-12-17T11:44:15Z</time>
      </trkpt>
      <trkpt lat="38.862550" lon="-5.818700">
        <ele>307.8</ele>
        <time>2009-12-17T11:44:48Z</time>
      </trkpt>
      <trkpt lat="38.862640" lon="-5.818790">
        <ele>307.8</ele>
        <time>2009-12-17T11:44:57Z</time>
      </trkpt>
      <trkpt lat="38.862750" lon="-5.818720">
        <ele>308.7</ele>
        <time>2009-12-17T11:45:08Z</time>
      </trkpt>
      <trkpt lat="38.862930" lon="-5.818760">
        <ele>310.7</ele>
        <time>2009-12-17T11:45:31Z</time>
      </trkpt>
      <trkpt lat="38.862950" lon="-5.818750">
        <ele>309.7</ele>
        <time>2009-12-17T11:46:02Z</time>
      </trkpt>
      <trkpt lat="38.862990" lon="-5.818760">
        <ele>310.2</ele>
        <time>2009-12-17T11:46:06Z</time>
      </trkpt>
      <trkpt lat="38.863190" lon="-5.819020">
        <ele>307.3</ele>
        <time>2009-12-17T11:46:30Z</time>
      </trkpt>
      <trkpt lat="38.863180" lon="-5.819160">
        <ele>308.2</ele>
        <time>2009-12-17T11:46:38Z</time>
      </trkpt>
      <trkpt lat="38.863210" lon="-5.819340">
        <ele>307.3</ele>
        <time>2009-12-17T11:46:49Z</time>
      </trkpt>
      <trkpt lat="38.863200" lon="-5.819610">
        <ele>307.8</ele>
        <time>2009-12-17T11:47:05Z</time>
      </trkpt>
      <trkpt lat="38.863430" lon="-5.819870">
        <ele>306.8</ele>
        <time>2009-12-17T11:47:30Z</time>
      </trkpt>
      <trkpt lat="38.863620" lon="-5.820270">
        <ele>307.8</ele>
        <time>2009-12-17T11:47:57Z</time>
      </trkpt>
      <trkpt lat="38.863800" lon="-5.820780">
        <ele>306.8</ele>
        <time>2009-12-17T11:48:28Z</time>
      </trkpt>
      <trkpt lat="38.863930" lon="-5.821370">
        <ele>305.3</ele>
        <time>2009-12-17T11:49:02Z</time>
      </trkpt>
      <trkpt lat="38.863940" lon="-5.821470">
        <ele>304.9</ele>
        <time>2009-12-17T11:49:08Z</time>
      </trkpt>
      <trkpt lat="38.864000" lon="-5.821860">
        <ele>304.9</ele>
        <time>2009-12-17T11:49:32Z</time>
      </trkpt>
      <trkpt lat="38.863870" lon="-5.822050">
        <ele>305.8</ele>
        <time>2009-12-17T11:49:55Z</time>
      </trkpt>
      <trkpt lat="38.863850" lon="-5.822040">
        <ele>305.8</ele>
        <time>2009-12-17T11:50:12Z</time>
      </trkpt>
      <trkpt lat="38.863870" lon="-5.822060">
        <ele>305.3</ele>
        <time>2009-12-17T11:50:15Z</time>
      </trkpt>
      <trkpt lat="38.863840" lon="-5.822160">
        <ele>304.4</ele>
        <time>2009-12-17T11:50:35Z</time>
      </trkpt>
      <trkpt lat="38.863820" lon="-5.822220">
        <ele>304.4</ele>
        <time>2009-12-17T11:50:39Z</time>
      </trkpt>
      <trkpt lat="38.863790" lon="-5.822280">
        <ele>304.9</ele>
        <time>2009-12-17T11:50:43Z</time>
      </trkpt>
      <trkpt lat="38.863770" lon="-5.822320">
        <ele>303.9</ele>
        <time>2009-12-17T11:50:49Z</time>
      </trkpt>
      <trkpt lat="38.863750" lon="-5.822490">
        <ele>305.3</ele>
        <time>2009-12-17T11:51:00Z</time>
      </trkpt>
      <trkpt lat="38.863750" lon="-5.822530">
        <ele>305.3</ele>
        <time>2009-12-17T11:51:03Z</time>
      </trkpt>
      <trkpt lat="38.863740" lon="-5.822770">
        <ele>304.9</ele>
        <time>2009-12-17T11:51:23Z</time>
      </trkpt>
      <trkpt lat="38.863630" lon="-5.823110">
        <ele>305.3</ele>
        <time>2009-12-17T11:51:45Z</time>
      </trkpt>
      <trkpt lat="38.863590" lon="-5.823420">
        <ele>305.8</ele>
        <time>2009-12-17T11:52:07Z</time>
      </trkpt>
      <trkpt lat="38.863480" lon="-5.823750">
        <ele>304.4</ele>
        <time>2009-12-17T11:52:29Z</time>
      </trkpt>
      <trkpt lat="38.863430" lon="-5.824020">
        <ele>305.8</ele>
        <time>2009-12-17T11:52:47Z</time>
      </trkpt>
      <trkpt lat="38.863430" lon="-5.824080">
        <ele>305.3</ele>
        <time>2009-12-17T11:52:53Z</time>
      </trkpt>
      <trkpt lat="38.863420" lon="-5.824210">
        <ele>304.4</ele>
        <time>2009-12-17T11:53:01Z</time>
      </trkpt>
      <trkpt lat="38.863450" lon="-5.824290">
        <ele>305.3</ele>
        <time>2009-12-17T11:53:07Z</time>
      </trkpt>
      <trkpt lat="38.863450" lon="-5.824770">
        <ele>305.8</ele>
        <time>2009-12-17T11:53:34Z</time>
      </trkpt>
      <trkpt lat="38.863460" lon="-5.824970">
        <ele>304.9</ele>
        <time>2009-12-17T11:53:45Z</time>
      </trkpt>
      <trkpt lat="38.863610" lon="-5.825590">
        <ele>303.4</ele>
        <time>2009-12-17T11:54:20Z</time>
      </trkpt>
      <trkpt lat="38.863760" lon="-5.826020">
        <ele>303.4</ele>
        <time>2009-12-17T11:54:46Z</time>
      </trkpt>
      <trkpt lat="38.864060" lon="-5.826280">
        <ele>303.9</ele>
        <time>2009-12-17T11:55:12Z</time>
      </trkpt>
      <trkpt lat="38.864230" lon="-5.826740">
        <ele>303.9</ele>
        <time>2009-12-17T11:55:41Z</time>
      </trkpt>
      <trkpt lat="38.864300" lon="-5.826850">
        <ele>303.9</ele>
        <time>2009-12-17T11:55:49Z</time>
      </trkpt>
      <trkpt lat="38.864340" lon="-5.826970">
        <ele>302.9</ele>
        <time>2009-12-17T11:55:57Z</time>
      </trkpt>
      <trkpt lat="38.864420" lon="-5.827160">
        <ele>303.9</ele>
        <time>2009-12-17T11:56:10Z</time>
      </trkpt>
      <trkpt lat="38.864530" lon="-5.827390">
        <ele>303.9</ele>
        <time>2009-12-17T11:56:26Z</time>
      </trkpt>
      <trkpt lat="38.864550" lon="-5.827430">
        <ele>302.5</ele>
        <time>2009-12-17T11:56:29Z</time>
      </trkpt>
      <trkpt lat="38.864890" lon="-5.827530">
        <ele>304.4</ele>
        <time>2009-12-17T11:56:55Z</time>
      </trkpt>
      <trkpt lat="38.865050" lon="-5.827580">
        <ele>304.9</ele>
        <time>2009-12-17T11:57:07Z</time>
      </trkpt>
      <trkpt lat="38.865100" lon="-5.827600">
        <ele>303.4</ele>
        <time>2009-12-17T11:57:11Z</time>
      </trkpt>
      <trkpt lat="38.865490" lon="-5.827710">
        <ele>301.5</ele>
        <time>2009-12-17T11:57:40Z</time>
      </trkpt>
      <trkpt lat="38.865890" lon="-5.827810">
        <ele>301.0</ele>
        <time>2009-12-17T11:58:10Z</time>
      </trkpt>
      <trkpt lat="38.866060" lon="-5.827870">
        <ele>301.0</ele>
        <time>2009-12-17T11:58:23Z</time>
      </trkpt>
      <trkpt lat="38.866320" lon="-5.827900">
        <ele>301.0</ele>
        <time>2009-12-17T11:58:44Z</time>
      </trkpt>
      <trkpt lat="38.866610" lon="-5.828090">
        <ele>301.0</ele>
        <time>2009-12-17T11:59:08Z</time>
      </trkpt>
      <trkpt lat="38.866820" lon="-5.828110">
        <ele>301.0</ele>
        <time>2009-12-17T11:59:26Z</time>
      </trkpt>
      <trkpt lat="38.866860" lon="-5.828140">
        <ele>299.6</ele>
        <time>2009-12-17T11:59:44Z</time>
      </trkpt>
      <trkpt lat="38.866890" lon="-5.828140">
        <ele>301.0</ele>
        <time>2009-12-17T11:59:47Z</time>
      </trkpt>
      <trkpt lat="38.866910" lon="-5.828150">
        <ele>299.1</ele>
        <time>2009-12-17T11:59:49Z</time>
      </trkpt>
      <trkpt lat="38.866920" lon="-5.828170">
        <ele>302.9</ele>
        <time>2009-12-17T11:59:51Z</time>
      </trkpt>
      <trkpt lat="38.867140" lon="-5.828350">
        <ele>299.6</ele>
        <time>2009-12-17T12:00:10Z</time>
      </trkpt>
      <trkpt lat="38.867190" lon="-5.828380">
        <ele>297.7</ele>
        <time>2009-12-17T12:00:15Z</time>
      </trkpt>
      <trkpt lat="38.867560" lon="-5.828430">
        <ele>298.6</ele>
        <time>2009-12-17T12:00:42Z</time>
      </trkpt>
      <trkpt lat="38.867930" lon="-5.828340">
        <ele>298.2</ele>
        <time>2009-12-17T12:01:09Z</time>
      </trkpt>
      <trkpt lat="38.868310" lon="-5.828090">
        <ele>299.1</ele>
        <time>2009-12-17T12:01:40Z</time>
      </trkpt>
      <trkpt lat="38.868560" lon="-5.828200">
        <ele>299.1</ele>
        <time>2009-12-17T12:02:01Z</time>
      </trkpt>
      <trkpt lat="38.868980" lon="-5.828440">
        <ele>300.6</ele>
        <time>2009-12-17T12:02:36Z</time>
      </trkpt>
      <trkpt lat="38.869090" lon="-5.828620">
        <ele>298.6</ele>
        <time>2009-12-17T12:02:49Z</time>
      </trkpt>
      <trkpt lat="38.869090" lon="-5.828650">
        <ele>300.6</ele>
        <time>2009-12-17T12:02:51Z</time>
      </trkpt>
      <trkpt lat="38.869190" lon="-5.828780">
        <ele>299.1</ele>
        <time>2009-12-17T12:03:03Z</time>
      </trkpt>
      <trkpt lat="38.869390" lon="-5.829170">
        <ele>297.2</ele>
        <time>2009-12-17T12:03:30Z</time>
      </trkpt>
      <trkpt lat="38.869710" lon="-5.829450">
        <ele>299.1</ele>
        <time>2009-12-17T12:03:59Z</time>
      </trkpt>
      <trkpt lat="38.869780" lon="-5.829590">
        <ele>299.1</ele>
        <time>2009-12-17T12:04:11Z</time>
      </trkpt>
      <trkpt lat="38.869880" lon="-5.829650">
        <ele>299.1</ele>
        <time>2009-12-17T12:04:21Z</time>
      </trkpt>
      <trkpt lat="38.870100" lon="-5.830000">
        <ele>297.7</ele>
        <time>2009-12-17T12:04:47Z</time>
      </trkpt>
      <trkpt lat="38.870170" lon="-5.830340">
        <ele>298.6</ele>
        <time>2009-12-17T12:05:09Z</time>
      </trkpt>
      <trkpt lat="38.870170" lon="-5.830360">
        <ele>299.1</ele>
        <time>2009-12-17T12:05:10Z</time>
      </trkpt>
      <trkpt lat="38.870270" lon="-5.830440">
        <ele>297.7</ele>
        <time>2009-12-17T12:05:19Z</time>
      </trkpt>
      <trkpt lat="38.870440" lon="-5.830450">
        <ele>296.7</ele>
        <time>2009-12-17T12:05:32Z</time>
      </trkpt>
      <trkpt lat="38.870610" lon="-5.830540">
        <ele>297.7</ele>
        <time>2009-12-17T12:06:44Z</time>
      </trkpt>
      <trkpt lat="38.870910" lon="-5.830310">
        <ele>297.7</ele>
        <time>2009-12-17T12:07:10Z</time>
      </trkpt>
      <trkpt lat="38.871250" lon="-5.830230">
        <ele>297.7</ele>
        <time>2009-12-17T12:07:35Z</time>
      </trkpt>
      <trkpt lat="38.871570" lon="-5.830100">
        <ele>298.2</ele>
        <time>2009-12-17T12:07:59Z</time>
      </trkpt>
      <trkpt lat="38.871940" lon="-5.830040">
        <ele>298.6</ele>
        <time>2009-12-17T12:08:27Z</time>
      </trkpt>
      <trkpt lat="38.872350" lon="-5.830020">
        <ele>298.2</ele>
        <time>2009-12-17T12:08:58Z</time>
      </trkpt>
      <trkpt lat="38.872660" lon="-5.830210">
        <ele>297.2</ele>
        <time>2009-12-17T12:09:26Z</time>
      </trkpt>
      <trkpt lat="38.872800" lon="-5.830360">
        <ele>297.7</ele>
        <time>2009-12-17T12:09:52Z</time>
      </trkpt>
      <trkpt lat="38.872860" lon="-5.830480">
        <ele>296.7</ele>
        <time>2009-12-17T12:14:42Z</time>
      </trkpt>
      <trkpt lat="38.872880" lon="-5.830450">
        <ele>296.7</ele>
        <time>2009-12-17T12:14:49Z</time>
      </trkpt>
      <trkpt lat="38.872770" lon="-5.830360">
        <ele>298.2</ele>
        <time>2009-12-17T12:15:14Z</time>
      </trkpt>
      <trkpt lat="38.872530" lon="-5.830200">
        <ele>297.2</ele>
        <time>2009-12-17T12:18:22Z</time>
      </trkpt>
      <trkpt lat="38.872270" lon="-5.830130">
        <ele>296.7</ele>
        <time>2009-12-17T12:18:44Z</time>
      </trkpt>
      <trkpt lat="38.872080" lon="-5.830190">
        <ele>297.7</ele>
        <time>2009-12-17T12:19:07Z</time>
      </trkpt>
      <trkpt lat="38.872060" lon="-5.830180">
        <ele>298.6</ele>
        <time>2009-12-17T12:19:18Z</time>
      </trkpt>
      <trkpt lat="38.871690" lon="-5.830060">
        <ele>299.6</ele>
        <time>2009-12-17T12:19:48Z</time>
      </trkpt>
      <trkpt lat="38.871390" lon="-5.830180">
        <ele>298.6</ele>
        <time>2009-12-17T12:20:13Z</time>
      </trkpt>
      <trkpt lat="38.871050" lon="-5.830250">
        <ele>299.1</ele>
        <time>2009-12-17T12:20:40Z</time>
      </trkpt>
      <trkpt lat="38.870720" lon="-5.830410">
        <ele>298.6</ele>
        <time>2009-12-17T12:21:07Z</time>
      </trkpt>
      <trkpt lat="38.870620" lon="-5.830530">
        <ele>297.7</ele>
        <time>2009-12-17T12:21:18Z</time>
      </trkpt>
      <trkpt lat="38.870420" lon="-5.830430">
        <ele>296.2</ele>
        <time>2009-12-17T12:35:10Z</time>
      </trkpt>
      <trkpt lat="38.870150" lon="-5.830320">
        <ele>294.8</ele>
        <time>2009-12-17T12:35:37Z</time>
      </trkpt>
      <trkpt lat="38.870160" lon="-5.830130">
        <ele>296.7</ele>
        <time>2009-12-17T12:35:50Z</time>
      </trkpt>
      <trkpt lat="38.869990" lon="-5.829870">
        <ele>296.2</ele>
        <time>2009-12-17T12:36:15Z</time>
      </trkpt>
      <trkpt lat="38.869850" lon="-5.829610">
        <ele>296.2</ele>
        <time>2009-12-17T12:36:35Z</time>
      </trkpt>
      <trkpt lat="38.869710" lon="-5.829450">
        <ele>297.2</ele>
        <time>2009-12-17T12:36:52Z</time>
      </trkpt>
      <trkpt lat="38.869650" lon="-5.829380">
        <ele>297.2</ele>
        <time>2009-12-17T12:37:00Z</time>
      </trkpt>
      <trkpt lat="38.869610" lon="-5.829370">
        <ele>298.6</ele>
        <time>2009-12-17T12:37:03Z</time>
      </trkpt>
      <trkpt lat="38.869430" lon="-5.829240">
        <ele>297.2</ele>
        <time>2009-12-17T12:37:22Z</time>
      </trkpt>
      <trkpt lat="38.869380" lon="-5.829190">
        <ele>297.7</ele>
        <time>2009-12-17T12:37:29Z</time>
      </trkpt>
      <trkpt lat="38.869340" lon="-5.829150">
        <ele>297.7</ele>
        <time>2009-12-17T12:37:33Z</time>
      </trkpt>
      <trkpt lat="38.869190" lon="-5.828820">
        <ele>298.6</ele>
        <time>2009-12-17T12:37:59Z</time>
      </trkpt>
      <trkpt lat="38.869160" lon="-5.828730">
        <ele>299.1</ele>
        <time>2009-12-17T12:38:06Z</time>
      </trkpt>
      <trkpt lat="38.869090" lon="-5.828670">
        <ele>299.1</ele>
        <time>2009-12-17T12:38:15Z</time>
      </trkpt>
      <trkpt lat="38.868950" lon="-5.828420">
        <ele>300.6</ele>
        <time>2009-12-17T12:38:36Z</time>
      </trkpt>
      <trkpt lat="38.868890" lon="-5.828400">
        <ele>300.1</ele>
        <time>2009-12-17T12:38:41Z</time>
      </trkpt>
      <trkpt lat="38.868570" lon="-5.828230">
        <ele>299.1</ele>
        <time>2009-12-17T12:39:07Z</time>
      </trkpt>
      <trkpt lat="38.868250" lon="-5.828120">
        <ele>300.1</ele>
        <time>2009-12-17T12:39:36Z</time>
      </trkpt>
      <trkpt lat="38.867920" lon="-5.828340">
        <ele>299.1</ele>
        <time>2009-12-17T12:40:04Z</time>
      </trkpt>
      <trkpt lat="38.867550" lon="-5.828430">
        <ele>298.6</ele>
        <time>2009-12-17T12:40:34Z</time>
      </trkpt>
      <trkpt lat="38.867210" lon="-5.828390">
        <ele>299.1</ele>
        <time>2009-12-17T12:41:03Z</time>
      </trkpt>
      <trkpt lat="38.867160" lon="-5.828380">
        <ele>298.6</ele>
        <time>2009-12-17T12:41:23Z</time>
      </trkpt>
      <trkpt lat="38.867100" lon="-5.828330">
        <ele>298.6</ele>
        <time>2009-12-17T12:41:38Z</time>
      </trkpt>
      <trkpt lat="38.866890" lon="-5.828170">
        <ele>299.6</ele>
        <time>2009-12-17T12:42:01Z</time>
      </trkpt>
      <trkpt lat="38.866810" lon="-5.828120">
        <ele>299.6</ele>
        <time>2009-12-17T12:42:20Z</time>
      </trkpt>
      <trkpt lat="38.866810" lon="-5.828120">
        <ele>299.6</ele>
        <time>2009-12-17T12:42:23Z</time>
      </trkpt>
      <trkpt lat="38.866700" lon="-5.828090">
        <ele>298.6</ele>
        <time>2009-12-17T12:42:32Z</time>
      </trkpt>
      <trkpt lat="38.866320" lon="-5.827950">
        <ele>298.6</ele>
        <time>2009-12-17T12:43:01Z</time>
      </trkpt>
      <trkpt lat="38.866060" lon="-5.827860">
        <ele>298.6</ele>
        <time>2009-12-17T12:43:23Z</time>
      </trkpt>
      <trkpt lat="38.865690" lon="-5.827760">
        <ele>300.1</ele>
        <time>2009-12-17T12:43:51Z</time>
      </trkpt>
      <trkpt lat="38.865280" lon="-5.827700">
        <ele>300.1</ele>
        <time>2009-12-17T12:45:33Z</time>
      </trkpt>
      <trkpt lat="38.865280" lon="-5.827640">
        <ele>301.5</ele>
        <time>2009-12-17T12:45:37Z</time>
      </trkpt>
      <trkpt lat="38.865190" lon="-5.827600">
        <ele>302.9</ele>
        <time>2009-12-17T12:46:02Z</time>
      </trkpt>
      <trkpt lat="38.865060" lon="-5.827570">
        <ele>302.5</ele>
        <time>2009-12-17T12:46:47Z</time>
      </trkpt>
      <trkpt lat="38.864850" lon="-5.827510">
        <ele>302.0</ele>
        <time>2009-12-17T12:47:11Z</time>
      </trkpt>
      <trkpt lat="38.864570" lon="-5.827440">
        <ele>301.5</ele>
        <time>2009-12-17T12:47:34Z</time>
      </trkpt>
      <trkpt lat="38.864360" lon="-5.827070">
        <ele>301.5</ele>
        <time>2009-12-17T12:48:01Z</time>
      </trkpt>
      <trkpt lat="38.864190" lon="-5.826670">
        <ele>301.5</ele>
        <time>2009-12-17T12:48:27Z</time>
      </trkpt>
      <trkpt lat="38.864050" lon="-5.826280">
        <ele>301.5</ele>
        <time>2009-12-17T12:48:51Z</time>
      </trkpt>
      <trkpt lat="38.863740" lon="-5.825990">
        <ele>301.5</ele>
        <time>2009-12-17T12:49:19Z</time>
      </trkpt>
      <trkpt lat="38.863600" lon="-5.825600">
        <ele>302.0</ele>
        <time>2009-12-17T12:49:44Z</time>
      </trkpt>
      <trkpt lat="38.863510" lon="-5.825240">
        <ele>302.5</ele>
        <time>2009-12-17T12:50:08Z</time>
      </trkpt>
      <trkpt lat="38.863440" lon="-5.824970">
        <ele>302.9</ele>
        <time>2009-12-17T12:50:34Z</time>
      </trkpt>
      <trkpt lat="38.863470" lon="-5.824460">
        <ele>303.4</ele>
        <time>2009-12-17T12:51:05Z</time>
      </trkpt>
      <trkpt lat="38.863430" lon="-5.824040">
        <ele>302.5</ele>
        <time>2009-12-17T12:51:32Z</time>
      </trkpt>
      <trkpt lat="38.863440" lon="-5.823940">
        <ele>302.9</ele>
        <time>2009-12-17T12:51:40Z</time>
      </trkpt>
      <trkpt lat="38.863460" lon="-5.823800">
        <ele>302.5</ele>
        <time>2009-12-17T12:51:49Z</time>
      </trkpt>
      <trkpt lat="38.863560" lon="-5.823360">
        <ele>303.4</ele>
        <time>2009-12-17T12:52:18Z</time>
      </trkpt>
      <trkpt lat="38.863650" lon="-5.822940">
        <ele>303.4</ele>
        <time>2009-12-17T12:52:46Z</time>
      </trkpt>
      <trkpt lat="38.863730" lon="-5.822750">
        <ele>303.4</ele>
        <time>2009-12-17T12:52:59Z</time>
      </trkpt>
      <trkpt lat="38.863740" lon="-5.822670">
        <ele>303.4</ele>
        <time>2009-12-17T12:53:04Z</time>
      </trkpt>
      <trkpt lat="38.863850" lon="-5.822190">
        <ele>302.5</ele>
        <time>2009-12-17T12:53:34Z</time>
      </trkpt>
      <trkpt lat="38.863870" lon="-5.822110">
        <ele>304.9</ele>
        <time>2009-12-17T12:53:43Z</time>
      </trkpt>
      <trkpt lat="38.863860" lon="-5.822070">
        <ele>302.9</ele>
        <time>2009-12-17T12:53:46Z</time>
      </trkpt>
      <trkpt lat="38.863870" lon="-5.822030">
        <ele>302.5</ele>
        <time>2009-12-17T12:53:56Z</time>
      </trkpt>
      <trkpt lat="38.863920" lon="-5.822000">
        <ele>302.9</ele>
        <time>2009-12-17T12:54:01Z</time>
      </trkpt>
      <trkpt lat="38.863950" lon="-5.821950">
        <ele>302.5</ele>
        <time>2009-12-17T12:54:05Z</time>
      </trkpt>
      <trkpt lat="38.863970" lon="-5.821900">
        <ele>303.9</ele>
        <time>2009-12-17T12:54:09Z</time>
      </trkpt>
      <trkpt lat="38.863970" lon="-5.821700">
        <ele>304.4</ele>
        <time>2009-12-17T12:54:20Z</time>
      </trkpt>
      <trkpt lat="38.863890" lon="-5.821330">
        <ele>303.9</ele>
        <time>2009-12-17T12:54:43Z</time>
      </trkpt>
      <trkpt lat="38.863820" lon="-5.821020">
        <ele>303.4</ele>
        <time>2009-12-17T12:55:03Z</time>
      </trkpt>
      <trkpt lat="38.863680" lon="-5.820490">
        <ele>303.9</ele>
        <time>2009-12-17T12:55:35Z</time>
      </trkpt>
      <trkpt lat="38.863470" lon="-5.819970">
        <ele>303.4</ele>
        <time>2009-12-17T12:56:08Z</time>
      </trkpt>
      <trkpt lat="38.863450" lon="-5.819920">
        <ele>304.9</ele>
        <time>2009-12-17T12:56:11Z</time>
      </trkpt>
      <trkpt lat="38.863300" lon="-5.819770">
        <ele>304.9</ele>
        <time>2009-12-17T12:56:26Z</time>
      </trkpt>
      <trkpt lat="38.863190" lon="-5.819640">
        <ele>303.9</ele>
        <time>2009-12-17T12:56:37Z</time>
      </trkpt>
      <trkpt lat="38.863180" lon="-5.819330">
        <ele>304.4</ele>
        <time>2009-12-17T12:56:58Z</time>
      </trkpt>
      <trkpt lat="38.863140" lon="-5.818990">
        <ele>303.9</ele>
        <time>2009-12-17T12:57:21Z</time>
      </trkpt>
      <trkpt lat="38.863140" lon="-5.818980">
        <ele>304.4</ele>
        <time>2009-12-17T12:57:24Z</time>
      </trkpt>
      <trkpt lat="38.863050" lon="-5.818800">
        <ele>304.4</ele>
        <time>2009-12-17T12:57:39Z</time>
      </trkpt>
      <trkpt lat="38.863020" lon="-5.818770">
        <ele>307.3</ele>
        <time>2009-12-17T12:57:43Z</time>
      </trkpt>
      <trkpt lat="38.863010" lon="-5.818760">
        <ele>307.3</ele>
        <time>2009-12-17T12:57:44Z</time>
      </trkpt>
      <trkpt lat="38.862720" lon="-5.818700">
        <ele>306.3</ele>
        <time>2009-12-17T12:58:10Z</time>
      </trkpt>
      <trkpt lat="38.862720" lon="-5.818690">
        <ele>307.8</ele>
        <time>2009-12-17T12:58:13Z</time>
      </trkpt>
      <trkpt lat="38.862620" lon="-5.818750">
        <ele>306.3</ele>
        <time>2009-12-17T12:58:34Z</time>
      </trkpt>
      <trkpt lat="38.862600" lon="-5.818760">
        <ele>306.3</ele>
        <time>2009-12-17T12:58:56Z</time>
      </trkpt>
      <trkpt lat="38.862330" lon="-5.818540">
        <ele>306.3</ele>
        <time>2009-12-17T12:59:22Z</time>
      </trkpt>
      <trkpt lat="38.862000" lon="-5.818100">
        <ele>306.8</ele>
        <time>2009-12-17T12:59:58Z</time>
      </trkpt>
      <trkpt lat="38.861730" lon="-5.817820">
        <ele>308.2</ele>
        <time>2009-12-17T13:00:25Z</time>
      </trkpt>
      <trkpt lat="38.861690" lon="-5.817790">
        <ele>308.2</ele>
        <time>2009-12-17T13:00:35Z</time>
      </trkpt>
      <trkpt lat="38.861590" lon="-5.817630">
        <ele>307.8</ele>
        <time>2009-12-17T13:00:53Z</time>
      </trkpt>
      <trkpt lat="38.861590" lon="-5.817600">
        <ele>307.3</ele>
        <time>2009-12-17T13:00:57Z</time>
      </trkpt>
      <trkpt lat="38.861440" lon="-5.817290">
        <ele>307.3</ele>
        <time>2009-12-17T13:01:21Z</time>
      </trkpt>
      <trkpt lat="38.861430" lon="-5.817050">
        <ele>307.3</ele>
        <time>2009-12-17T13:01:35Z</time>
      </trkpt>
      <trkpt lat="38.861330" lon="-5.816630">
        <ele>307.3</ele>
        <time>2009-12-17T13:02:01Z</time>
      </trkpt>
      <trkpt lat="38.861250" lon="-5.816090">
        <ele>307.8</ele>
        <time>2009-12-17T13:02:31Z</time>
      </trkpt>
      <trkpt lat="38.861100" lon="-5.815730">
        <ele>306.8</ele>
        <time>2009-12-17T13:02:55Z</time>
      </trkpt>
      <trkpt lat="38.861050" lon="-5.815280">
        <ele>308.7</ele>
        <time>2009-12-17T13:03:24Z</time>
      </trkpt>
      <trkpt lat="38.861070" lon="-5.815010">
        <ele>308.7</ele>
        <time>2009-12-17T13:03:40Z</time>
      </trkpt>
      <trkpt lat="38.861110" lon="-5.814870">
        <ele>309.7</ele>
        <time>2009-12-17T13:03:50Z</time>
      </trkpt>
      <trkpt lat="38.861110" lon="-5.814830">
        <ele>309.2</ele>
        <time>2009-12-17T13:03:53Z</time>
      </trkpt>
      <trkpt lat="38.861080" lon="-5.814820">
        <ele>308.2</ele>
        <time>2009-12-17T13:03:56Z</time>
      </trkpt>
      <trkpt lat="38.861120" lon="-5.814610">
        <ele>307.8</ele>
        <time>2009-12-17T13:04:16Z</time>
      </trkpt>
      <trkpt lat="38.861180" lon="-5.814580">
        <ele>307.8</ele>
        <time>2009-12-17T13:04:44Z</time>
      </trkpt>
      <trkpt lat="38.861150" lon="-5.814550">
        <ele>308.2</ele>
        <time>2009-12-17T13:05:33Z</time>
      </trkpt>
      <trkpt lat="38.861150" lon="-5.814530">
        <ele>308.7</ele>
        <time>2009-12-17T13:05:36Z</time>
      </trkpt>
      <trkpt lat="38.861160" lon="-5.814480">
        <ele>308.2</ele>
        <time>2009-12-17T13:06:03Z</time>
      </trkpt>
      <trkpt lat="38.861140" lon="-5.814350">
        <ele>308.7</ele>
        <time>2009-12-17T13:06:39Z</time>
      </trkpt>
      <trkpt lat="38.861120" lon="-5.814300">
        <ele>308.7</ele>
        <time>2009-12-17T13:06:43Z</time>
      </trkpt>
      <trkpt lat="38.861060" lon="-5.814220">
        <ele>307.3</ele>
        <time>2009-12-17T13:07:02Z</time>
      </trkpt>
      <trkpt lat="38.861130" lon="-5.813920">
        <ele>310.7</ele>
        <time>2009-12-17T13:15:01Z</time>
      </trkpt>
      <trkpt lat="38.861250" lon="-5.813820">
        <ele>311.6</ele>
        <time>2009-12-17T13:15:21Z</time>
      </trkpt>
      <trkpt lat="38.861240" lon="-5.813790">
        <ele>310.7</ele>
        <time>2009-12-17T13:15:47Z</time>
      </trkpt>
      <trkpt lat="38.861270" lon="-5.813800">
        <ele>311.6</ele>
        <time>2009-12-17T13:17:06Z</time>
      </trkpt>
      <trkpt lat="38.861310" lon="-5.813780">
        <ele>314.0</ele>
        <time>2009-12-17T13:17:10Z</time>
      </trkpt>
      <trkpt lat="38.860940" lon="-5.813750">
        <ele>314.5</ele>
        <time>2009-12-17T13:17:36Z</time>
      </trkpt>
      <trkpt lat="38.860780" lon="-5.813790">
        <ele>315.0</ele>
        <time>2009-12-17T13:17:47Z</time>
      </trkpt>
      <trkpt lat="38.860730" lon="-5.813800">
        <ele>314.0</ele>
        <time>2009-12-17T13:17:57Z</time>
      </trkpt>
      <trkpt lat="38.860270" lon="-5.813860">
        <ele>313.5</ele>
        <time>2009-12-17T13:18:26Z</time>
      </trkpt>
      <trkpt lat="38.860130" lon="-5.813840">
        <ele>311.6</ele>
        <time>2009-12-17T13:18:45Z</time>
      </trkpt>
      <trkpt lat="38.860170" lon="-5.813870">
        <ele>313.1</ele>
        <time>2009-12-17T13:19:35Z</time>
      </trkpt>
      <trkpt lat="38.859800" lon="-5.813950">
        <ele>311.6</ele>
        <time>2009-12-17T13:20:01Z</time>
      </trkpt>
      <trkpt lat="38.859780" lon="-5.813950">
        <ele>312.6</ele>
        <time>2009-12-17T13:20:03Z</time>
      </trkpt>
      <trkpt lat="38.859570" lon="-5.813940">
        <ele>314.0</ele>
        <time>2009-12-17T13:20:54Z</time>
      </trkpt>
      <trkpt lat="38.859440" lon="-5.813940">
        <ele>314.0</ele>
        <time>2009-12-17T13:22:51Z</time>
      </trkpt>
      <trkpt lat="38.858950" lon="-5.814150">
        <ele>315.9</ele>
        <time>2009-12-17T13:23:37Z</time>
      </trkpt>
      <trkpt lat="38.858440" lon="-5.814250">
        <ele>316.4</ele>
        <time>2009-12-17T13:24:12Z</time>
      </trkpt>
      <trkpt lat="38.858190" lon="-5.814300">
        <ele>316.4</ele>
        <time>2009-12-17T13:24:43Z</time>
      </trkpt>
      <trkpt lat="38.858070" lon="-5.814310">
        <ele>316.4</ele>
        <time>2009-12-17T13:25:08Z</time>
      </trkpt>
      <trkpt lat="38.857780" lon="-5.814410">
        <ele>317.4</ele>
        <time>2009-12-17T13:25:31Z</time>
      </trkpt>
      <trkpt lat="38.857450" lon="-5.814550">
        <ele>318.3</ele>
        <time>2009-12-17T13:26:00Z</time>
      </trkpt>
      <trkpt lat="38.857190" lon="-5.814650">
        <ele>321.2</ele>
        <time>2009-12-17T13:26:28Z</time>
      </trkpt>
      <trkpt lat="38.856820" lon="-5.814760">
        <ele>325.6</ele>
        <time>2009-12-17T13:26:56Z</time>
      </trkpt>
      <trkpt lat="38.856810" lon="-5.814760">
        <ele>325.6</ele>
        <time>2009-12-17T13:26:57Z</time>
      </trkpt>
      <trkpt lat="38.856750" lon="-5.814790">
        <ele>324.6</ele>
        <time>2009-12-17T13:27:02Z</time>
      </trkpt>
      <trkpt lat="38.856490" lon="-5.815040">
        <ele>327.0</ele>
        <time>2009-12-17T13:27:27Z</time>
      </trkpt>
      <trkpt lat="38.856260" lon="-5.815510">
        <ele>327.0</ele>
        <time>2009-12-17T13:28:00Z</time>
      </trkpt>
      <trkpt lat="38.856090" lon="-5.815740">
        <ele>330.3</ele>
        <time>2009-12-17T13:28:18Z</time>
      </trkpt>
      <trkpt lat="38.855990" lon="-5.815860">
        <ele>331.8</ele>
        <time>2009-12-17T13:28:29Z</time>
      </trkpt>
      <trkpt lat="38.855960" lon="-5.815920">
        <ele>332.3</ele>
        <time>2009-12-17T13:28:34Z</time>
      </trkpt>
      <trkpt lat="38.855950" lon="-5.815970">
        <ele>329.9</ele>
        <time>2009-12-17T13:28:37Z</time>
      </trkpt>
      <trkpt lat="38.855940" lon="-5.816190">
        <ele>333.7</ele>
        <time>2009-12-17T13:28:51Z</time>
      </trkpt>
      <trkpt lat="38.855930" lon="-5.816210">
        <ele>333.7</ele>
        <time>2009-12-17T13:28:52Z</time>
      </trkpt>
      <trkpt lat="38.855720" lon="-5.816450">
        <ele>333.2</ele>
        <time>2009-12-17T13:29:19Z</time>
      </trkpt>
      <trkpt lat="38.855450" lon="-5.816630">
        <ele>331.3</ele>
        <time>2009-12-17T13:29:49Z</time>
      </trkpt>
      <trkpt lat="38.855410" lon="-5.816690">
        <ele>330.8</ele>
        <time>2009-12-17T13:29:56Z</time>
      </trkpt>
      <trkpt lat="38.855390" lon="-5.816710">
        <ele>332.8</ele>
        <time>2009-12-17T13:29:59Z</time>
      </trkpt>
      <trkpt lat="38.855310" lon="-5.816770">
        <ele>331.3</ele>
        <time>2009-12-17T13:30:07Z</time>
      </trkpt>
      <trkpt lat="38.855020" lon="-5.816880">
        <ele>328.9</ele>
        <time>2009-12-17T13:30:33Z</time>
      </trkpt>
      <trkpt lat="38.854960" lon="-5.816910">
        <ele>330.3</ele>
        <time>2009-12-17T13:30:38Z</time>
      </trkpt>
      <trkpt lat="38.854480" lon="-5.817120">
        <ele>329.4</ele>
        <time>2009-12-17T13:31:14Z</time>
      </trkpt>
      <trkpt lat="38.854130" lon="-5.817390">
        <ele>329.9</ele>
        <time>2009-12-17T13:31:43Z</time>
      </trkpt>
      <trkpt lat="38.853740" lon="-5.817480">
        <ele>331.3</ele>
        <time>2009-12-17T13:32:11Z</time>
      </trkpt>
      <trkpt lat="38.853310" lon="-5.817530">
        <ele>331.3</ele>
        <time>2009-12-17T13:32:42Z</time>
      </trkpt>
      <trkpt lat="38.852910" lon="-5.817520">
        <ele>332.3</ele>
        <time>2009-12-17T13:33:12Z</time>
      </trkpt>
      <trkpt lat="38.852880" lon="-5.817570">
        <ele>332.8</ele>
        <time>2009-12-17T13:33:43Z</time>
      </trkpt>
      <trkpt lat="38.852710" lon="-5.817640">
        <ele>333.2</ele>
        <time>2009-12-17T13:34:06Z</time>
      </trkpt>
      <trkpt lat="38.852610" lon="-5.817770">
        <ele>331.8</ele>
        <time>2009-12-17T13:36:26Z</time>
      </trkpt>
      <trkpt lat="38.852420" lon="-5.818040">
        <ele>332.3</ele>
        <time>2009-12-17T13:36:50Z</time>
      </trkpt>
      <trkpt lat="38.852180" lon="-5.818290">
        <ele>334.2</ele>
        <time>2009-12-17T13:37:14Z</time>
      </trkpt>
      <trkpt lat="38.851920" lon="-5.818590">
        <ele>335.6</ele>
        <time>2009-12-17T13:37:42Z</time>
      </trkpt>
      <trkpt lat="38.851710" lon="-5.818870">
        <ele>334.7</ele>
        <time>2009-12-17T13:38:07Z</time>
      </trkpt>
      <trkpt lat="38.851570" lon="-5.819060">
        <ele>337.1</ele>
        <time>2009-12-17T13:38:25Z</time>
      </trkpt>
      <trkpt lat="38.851540" lon="-5.819100">
        <ele>336.6</ele>
        <time>2009-12-17T13:38:52Z</time>
      </trkpt>
      <trkpt lat="38.851520" lon="-5.819170">
        <ele>338.1</ele>
        <time>2009-12-17T13:38:57Z</time>
      </trkpt>
      <trkpt lat="38.851270" lon="-5.819560">
        <ele>339.5</ele>
        <time>2009-12-17T13:39:27Z</time>
      </trkpt>
      <trkpt lat="38.851050" lon="-5.820050">
        <ele>340.4</ele>
        <time>2009-12-17T13:40:01Z</time>
      </trkpt>
      <trkpt lat="38.851010" lon="-5.820160">
        <ele>341.9</ele>
        <time>2009-12-17T13:40:09Z</time>
      </trkpt>
      <trkpt lat="38.850890" lon="-5.820310">
        <ele>342.8</ele>
        <time>2009-12-17T13:40:21Z</time>
      </trkpt>
      <trkpt lat="38.850700" lon="-5.820810">
        <ele>342.8</ele>
        <time>2009-12-17T13:40:53Z</time>
      </trkpt>
      <trkpt lat="38.850410" lon="-5.821150">
        <ele>344.3</ele>
        <time>2009-12-17T13:41:23Z</time>
      </trkpt>
      <trkpt lat="38.850260" lon="-5.821310">
        <ele>347.7</ele>
        <time>2009-12-17T13:41:39Z</time>
      </trkpt>
      <trkpt lat="38.850150" lon="-5.821470">
        <ele>349.1</ele>
        <time>2009-12-17T13:42:02Z</time>
      </trkpt>
      <trkpt lat="38.849900" lon="-5.821620">
        <ele>350.6</ele>
        <time>2009-12-17T13:42:22Z</time>
      </trkpt>
      <trkpt lat="38.849590" lon="-5.821830">
        <ele>349.1</ele>
        <time>2009-12-17T13:42:48Z</time>
      </trkpt>
      <trkpt lat="38.849240" lon="-5.822060">
        <ele>352.0</ele>
        <time>2009-12-17T13:43:18Z</time>
      </trkpt>
      <trkpt lat="38.848910" lon="-5.822130">
        <ele>352.0</ele>
        <time>2009-12-17T13:43:43Z</time>
      </trkpt>
      <trkpt lat="38.848720" lon="-5.822200">
        <ele>352.0</ele>
        <time>2009-12-17T13:44:02Z</time>
      </trkpt>
      <trkpt lat="38.848260" lon="-5.822320">
        <ele>352.9</ele>
        <time>2009-12-17T13:44:35Z</time>
      </trkpt>
      <trkpt lat="38.847960" lon="-5.822450">
        <ele>356.8</ele>
        <time>2009-12-17T13:45:02Z</time>
      </trkpt>
      <trkpt lat="38.847630" lon="-5.822720">
        <ele>357.3</ele>
        <time>2009-12-17T13:45:32Z</time>
      </trkpt>
      <trkpt lat="38.847320" lon="-5.822930">
        <ele>360.6</ele>
        <time>2009-12-17T13:46:00Z</time>
      </trkpt>
      <trkpt lat="38.847240" lon="-5.822970">
        <ele>361.1</ele>
        <time>2009-12-17T13:46:07Z</time>
      </trkpt>
      <trkpt lat="38.847210" lon="-5.823000">
        <ele>363.5</ele>
        <time>2009-12-17T13:46:13Z</time>
      </trkpt>
      <trkpt lat="38.847200" lon="-5.823000">
        <ele>362.1</ele>
        <time>2009-12-17T13:46:14Z</time>
      </trkpt>
      <trkpt lat="38.846820" lon="-5.823130">
        <ele>365.0</ele>
        <time>2009-12-17T13:46:44Z</time>
      </trkpt>
      <trkpt lat="38.846790" lon="-5.823140">
        <ele>363.5</ele>
        <time>2009-12-17T13:46:47Z</time>
      </trkpt>
      <trkpt lat="38.846450" lon="-5.823260">
        <ele>366.4</ele>
        <time>2009-12-17T13:47:15Z</time>
      </trkpt>
      <trkpt lat="38.846380" lon="-5.823300">
        <ele>368.3</ele>
        <time>2009-12-17T13:47:21Z</time>
      </trkpt>
      <trkpt lat="38.846300" lon="-5.823340">
        <ele>370.7</ele>
        <time>2009-12-17T13:47:28Z</time>
      </trkpt>
      <trkpt lat="38.846220" lon="-5.823390">
        <ele>369.8</ele>
        <time>2009-12-17T13:47:35Z</time>
      </trkpt>
      <trkpt lat="38.845860" lon="-5.823570">
        <ele>373.1</ele>
        <time>2009-12-17T13:48:06Z</time>
      </trkpt>
      <trkpt lat="38.845670" lon="-5.823650">
        <ele>375.1</ele>
        <time>2009-12-17T13:48:23Z</time>
      </trkpt>
      <trkpt lat="38.845290" lon="-5.823820">
        <ele>376.5</ele>
        <time>2009-12-17T13:48:54Z</time>
      </trkpt>
      <trkpt lat="38.845180" lon="-5.823950">
        <ele>379.9</ele>
        <time>2009-12-17T13:49:07Z</time>
      </trkpt>
      <trkpt lat="38.845160" lon="-5.823980">
        <ele>379.4</ele>
        <time>2009-12-17T13:49:10Z</time>
      </trkpt>
      <trkpt lat="38.844950" lon="-5.824320">
        <ele>380.3</ele>
        <time>2009-12-17T13:49:37Z</time>
      </trkpt>
      <trkpt lat="38.844870" lon="-5.824560">
        <ele>380.3</ele>
        <time>2009-12-17T13:49:53Z</time>
      </trkpt>
      <trkpt lat="38.844620" lon="-5.825010">
        <ele>383.7</ele>
        <time>2009-12-17T13:50:26Z</time>
      </trkpt>
      <trkpt lat="38.844400" lon="-5.825480">
        <ele>385.6</ele>
        <time>2009-12-17T13:50:58Z</time>
      </trkpt>
      <trkpt lat="38.844380" lon="-5.825510">
        <ele>387.1</ele>
        <time>2009-12-17T13:51:00Z</time>
      </trkpt>
      <trkpt lat="38.844330" lon="-5.825590">
        <ele>385.6</ele>
        <time>2009-12-17T13:51:06Z</time>
      </trkpt>
      <trkpt lat="38.844300" lon="-5.825640">
        <ele>387.1</ele>
        <time>2009-12-17T13:51:10Z</time>
      </trkpt>
      <trkpt lat="38.844190" lon="-5.825810">
        <ele>386.1</ele>
        <time>2009-12-17T13:51:23Z</time>
      </trkpt>
      <trkpt lat="38.843870" lon="-5.825950">
        <ele>386.6</ele>
        <time>2009-12-17T13:51:48Z</time>
      </trkpt>
      <trkpt lat="38.843600" lon="-5.826110">
        <ele>388.5</ele>
        <time>2009-12-17T13:52:13Z</time>
      </trkpt>
      <trkpt lat="38.843530" lon="-5.826150">
        <ele>391.4</ele>
        <time>2009-12-17T13:52:23Z</time>
      </trkpt>
      <trkpt lat="38.843420" lon="-5.826210">
        <ele>390.9</ele>
        <time>2009-12-17T13:52:31Z</time>
      </trkpt>
      <trkpt lat="38.843120" lon="-5.826360">
        <ele>387.6</ele>
        <time>2009-12-17T13:52:56Z</time>
      </trkpt>
      <trkpt lat="38.843030" lon="-5.826360">
        <ele>389.0</ele>
        <time>2009-12-17T13:53:17Z</time>
      </trkpt>
      <trkpt lat="38.843010" lon="-5.826380">
        <ele>390.0</ele>
        <time>2009-12-17T13:53:43Z</time>
      </trkpt>
      <trkpt lat="38.843010" lon="-5.826380">
        <ele>388.5</ele>
        <time>2009-12-17T13:53:47Z</time>
      </trkpt>
      <trkpt lat="38.843020" lon="-5.826390">
        <ele>387.6</ele>
        <time>2009-12-17T13:54:08Z</time>
      </trkpt>
      <trkpt lat="38.843030" lon="-5.826390">
        <ele>388.0</ele>
        <time>2009-12-17T13:54:29Z</time>
      </trkpt>
      <trkpt lat="38.842990" lon="-5.826240">
        <ele>389.5</ele>
        <time>2009-12-17T13:55:07Z</time>
      </trkpt>
      <trkpt lat="38.842970" lon="-5.826110">
        <ele>386.6</ele>
        <time>2009-12-17T13:55:15Z</time>
      </trkpt>
      <trkpt lat="38.842970" lon="-5.826090">
        <ele>386.1</ele>
        <time>2009-12-17T13:55:16Z</time>
      </trkpt>
      <trkpt lat="38.842950" lon="-5.825990">
        <ele>384.7</ele>
        <time>2009-12-17T13:55:22Z</time>
      </trkpt>
      <trkpt lat="38.842950" lon="-5.825970">
        <ele>384.2</ele>
        <time>2009-12-17T13:55:23Z</time>
      </trkpt>
      <trkpt lat="38.842870" lon="-5.825550">
        <ele>380.8</ele>
        <time>2009-12-17T13:55:48Z</time>
      </trkpt>
      <trkpt lat="38.842770" lon="-5.825040">
        <ele>380.8</ele>
        <time>2009-12-17T13:56:17Z</time>
      </trkpt>
      <trkpt lat="38.842640" lon="-5.824450">
        <ele>381.8</ele>
        <time>2009-12-17T13:56:51Z</time>
      </trkpt>
      <trkpt lat="38.842540" lon="-5.823980">
        <ele>378.4</ele>
        <time>2009-12-17T13:57:17Z</time>
      </trkpt>
      <trkpt lat="38.842400" lon="-5.823540">
        <ele>376.0</ele>
        <time>2009-12-17T13:57:44Z</time>
      </trkpt>
      <trkpt lat="38.842310" lon="-5.823290">
        <ele>375.5</ele>
        <time>2009-12-17T13:58:08Z</time>
      </trkpt>
      <trkpt lat="38.842300" lon="-5.823220">
        <ele>375.5</ele>
        <time>2009-12-17T13:58:18Z</time>
      </trkpt>
      <trkpt lat="38.842260" lon="-5.822990">
        <ele>377.5</ele>
        <time>2009-12-17T13:58:40Z</time>
      </trkpt>
      <trkpt lat="38.842240" lon="-5.822870">
        <ele>380.8</ele>
        <time>2009-12-17T13:58:49Z</time>
      </trkpt>
      <trkpt lat="38.842210" lon="-5.822680">
        <ele>382.7</ele>
        <time>2009-12-17T13:59:02Z</time>
      </trkpt>
      <trkpt lat="38.842160" lon="-5.822280">
        <ele>385.6</ele>
        <time>2009-12-17T13:59:28Z</time>
      </trkpt>
      <trkpt lat="38.842040" lon="-5.821840">
        <ele>387.6</ele>
        <time>2009-12-17T13:59:56Z</time>
      </trkpt>
      <trkpt lat="38.842080" lon="-5.821810">
        <ele>387.6</ele>
        <time>2009-12-17T14:00:22Z</time>
      </trkpt>
      <trkpt lat="38.842050" lon="-5.821670">
        <ele>386.6</ele>
        <time>2009-12-17T14:00:58Z</time>
      </trkpt>
      <trkpt lat="38.841960" lon="-5.821400">
        <ele>387.1</ele>
        <time>2009-12-17T14:01:18Z</time>
      </trkpt>
      <trkpt lat="38.841810" lon="-5.821080">
        <ele>385.6</ele>
        <time>2009-12-17T14:01:45Z</time>
      </trkpt>
      <trkpt lat="38.841800" lon="-5.821060">
        <ele>386.6</ele>
        <time>2009-12-17T14:02:17Z</time>
      </trkpt>
      <trkpt lat="38.841800" lon="-5.821050">
        <ele>386.1</ele>
        <time>2009-12-17T14:02:59Z</time>
      </trkpt>
      <trkpt lat="38.841680" lon="-5.820700">
        <ele>385.6</ele>
        <time>2009-12-17T14:14:31Z</time>
      </trkpt>
      <trkpt lat="38.841550" lon="-5.820430">
        <ele>385.6</ele>
        <time>2009-12-17T14:15:05Z</time>
      </trkpt>
      <trkpt lat="38.841370" lon="-5.819870">
        <ele>386.1</ele>
        <time>2009-12-17T14:15:37Z</time>
      </trkpt>
      <trkpt lat="38.841220" lon="-5.819390">
        <ele>386.6</ele>
        <time>2009-12-17T14:16:05Z</time>
      </trkpt>
      <trkpt lat="38.841010" lon="-5.818850">
        <ele>385.1</ele>
        <time>2009-12-17T14:16:38Z</time>
      </trkpt>
      <trkpt lat="38.840880" lon="-5.818450">
        <ele>381.8</ele>
        <time>2009-12-17T14:17:02Z</time>
      </trkpt>
      <trkpt lat="38.840670" lon="-5.817990">
        <ele>382.2</ele>
        <time>2009-12-17T14:17:31Z</time>
      </trkpt>
      <trkpt lat="38.840550" lon="-5.817730">
        <ele>379.4</ele>
        <time>2009-12-17T14:17:49Z</time>
      </trkpt>
      <trkpt lat="38.840540" lon="-5.817710">
        <ele>383.7</ele>
        <time>2009-12-17T14:17:50Z</time>
      </trkpt>
      <trkpt lat="38.840380" lon="-5.817390">
        <ele>382.2</ele>
        <time>2009-12-17T14:18:15Z</time>
      </trkpt>
      <trkpt lat="38.840230" lon="-5.817200">
        <ele>378.4</ele>
        <time>2009-12-17T14:18:31Z</time>
      </trkpt>
      <trkpt lat="38.839960" lon="-5.816770">
        <ele>376.0</ele>
        <time>2009-12-17T14:19:00Z</time>
      </trkpt>
      <trkpt lat="38.839730" lon="-5.816270">
        <ele>376.0</ele>
        <time>2009-12-17T14:19:31Z</time>
      </trkpt>
      <trkpt lat="38.839550" lon="-5.815830">
        <ele>378.4</ele>
        <time>2009-12-17T14:19:59Z</time>
      </trkpt>
      <trkpt lat="38.839330" lon="-5.815320">
        <ele>375.5</ele>
        <time>2009-12-17T14:20:31Z</time>
      </trkpt>
      <trkpt lat="38.839280" lon="-5.815210">
        <ele>374.1</ele>
        <time>2009-12-17T14:20:38Z</time>
      </trkpt>
      <trkpt lat="38.839140" lon="-5.814700">
        <ele>372.6</ele>
        <time>2009-12-17T14:21:11Z</time>
      </trkpt>
      <trkpt lat="38.839110" lon="-5.814680">
        <ele>373.1</ele>
        <time>2009-12-17T14:21:50Z</time>
      </trkpt>
      <trkpt lat="38.839080" lon="-5.814610">
        <ele>372.6</ele>
        <time>2009-12-17T14:22:11Z</time>
      </trkpt>
      <trkpt lat="38.839080" lon="-5.814610">
        <ele>373.6</ele>
        <time>2009-12-17T14:22:13Z</time>
      </trkpt>
      <trkpt lat="38.839000" lon="-5.814230">
        <ele>373.6</ele>
        <time>2009-12-17T14:22:37Z</time>
      </trkpt>
      <trkpt lat="38.838900" lon="-5.813950">
        <ele>373.6</ele>
        <time>2009-12-17T14:23:00Z</time>
      </trkpt>
      <trkpt lat="38.838710" lon="-5.813470">
        <ele>371.7</ele>
        <time>2009-12-17T14:23:29Z</time>
      </trkpt>
      <trkpt lat="38.838570" lon="-5.813150">
        <ele>370.7</ele>
        <time>2009-12-17T14:23:53Z</time>
      </trkpt>
      <trkpt lat="38.838440" lon="-5.812810">
        <ele>369.8</ele>
        <time>2009-12-17T14:24:18Z</time>
      </trkpt>
      <trkpt lat="38.838270" lon="-5.812470">
        <ele>368.3</ele>
        <time>2009-12-17T14:24:42Z</time>
      </trkpt>
      <trkpt lat="38.838150" lon="-5.812130">
        <ele>365.4</ele>
        <time>2009-12-17T14:25:04Z</time>
      </trkpt>
      <trkpt lat="38.838090" lon="-5.812070">
        <ele>364.5</ele>
        <time>2009-12-17T14:42:55Z</time>
      </trkpt>
      <trkpt lat="38.837880" lon="-5.811570">
        <ele>363.0</ele>
        <time>2009-12-17T14:43:26Z</time>
      </trkpt>
      <trkpt lat="38.837630" lon="-5.811130">
        <ele>363.0</ele>
        <time>2009-12-17T14:43:55Z</time>
      </trkpt>
      <trkpt lat="38.837380" lon="-5.810620">
        <ele>363.0</ele>
        <time>2009-12-17T14:44:28Z</time>
      </trkpt>
      <trkpt lat="38.837230" lon="-5.810320">
        <ele>363.0</ele>
        <time>2009-12-17T14:44:47Z</time>
      </trkpt>
      <trkpt lat="38.837060" lon="-5.809950">
        <ele>362.1</ele>
        <time>2009-12-17T14:45:12Z</time>
      </trkpt>
      <trkpt lat="38.837030" lon="-5.809890">
        <ele>360.6</ele>
        <time>2009-12-17T14:45:30Z</time>
      </trkpt>
      <trkpt lat="38.837020" lon="-5.809870">
        <ele>360.6</ele>
        <time>2009-12-17T14:47:40Z</time>
      </trkpt>
      <trkpt lat="38.836920" lon="-5.809730">
        <ele>359.2</ele>
        <time>2009-12-17T14:48:16Z</time>
      </trkpt>
      <trkpt lat="38.836800" lon="-5.809490">
        <ele>359.2</ele>
        <time>2009-12-17T14:48:49Z</time>
      </trkpt>
      <trkpt lat="38.836750" lon="-5.809340">
        <ele>359.2</ele>
        <time>2009-12-17T14:48:58Z</time>
      </trkpt>
      <trkpt lat="38.836730" lon="-5.809330">
        <ele>359.2</ele>
        <time>2009-12-17T14:49:00Z</time>
      </trkpt>
      <trkpt lat="38.836550" lon="-5.808970">
        <ele>359.7</ele>
        <time>2009-12-17T14:49:24Z</time>
      </trkpt>
      <trkpt lat="38.836250" lon="-5.808460">
        <ele>360.6</ele>
        <time>2009-12-17T14:49:59Z</time>
      </trkpt>
      <trkpt lat="38.836020" lon="-5.808200">
        <ele>361.1</ele>
        <time>2009-12-17T14:50:23Z</time>
      </trkpt>
      <trkpt lat="38.835970" lon="-5.808270">
        <ele>360.6</ele>
        <time>2009-12-17T14:50:42Z</time>
      </trkpt>
      <trkpt lat="38.835920" lon="-5.807930">
        <ele>360.2</ele>
        <time>2009-12-17T14:51:04Z</time>
      </trkpt>
      <trkpt lat="38.835900" lon="-5.807780">
        <ele>360.2</ele>
        <time>2009-12-17T14:51:13Z</time>
      </trkpt>
      <trkpt lat="38.835890" lon="-5.807830">
        <ele>360.6</ele>
        <time>2009-12-17T14:51:32Z</time>
      </trkpt>
      <trkpt lat="38.835910" lon="-5.807820">
        <ele>361.1</ele>
        <time>2009-12-17T14:51:50Z</time>
      </trkpt>
      <trkpt lat="38.835800" lon="-5.807520">
        <ele>364.0</ele>
        <time>2009-12-17T14:52:14Z</time>
      </trkpt>
      <trkpt lat="38.835790" lon="-5.807410">
        <ele>363.0</ele>
        <time>2009-12-17T14:55:07Z</time>
      </trkpt>
      <trkpt lat="38.835790" lon="-5.807400">
        <ele>365.0</ele>
        <time>2009-12-17T14:55:14Z</time>
      </trkpt>
      <trkpt lat="38.835670" lon="-5.807090">
        <ele>364.0</ele>
        <time>2009-12-17T14:55:50Z</time>
      </trkpt>
      <trkpt lat="38.835560" lon="-5.806820">
        <ele>364.5</ele>
        <time>2009-12-17T14:56:12Z</time>
      </trkpt>
      <trkpt lat="38.835370" lon="-5.806410">
        <ele>366.4</ele>
        <time>2009-12-17T14:56:39Z</time>
      </trkpt>
      <trkpt lat="38.835210" lon="-5.805970">
        <ele>365.4</ele>
        <time>2009-12-17T14:57:06Z</time>
      </trkpt>
      <trkpt lat="38.835140" lon="-5.805440">
        <ele>366.4</ele>
        <time>2009-12-17T14:57:36Z</time>
      </trkpt>
      <trkpt lat="38.835160" lon="-5.805350">
        <ele>365.9</ele>
        <time>2009-12-17T14:57:41Z</time>
      </trkpt>
      <trkpt lat="38.835220" lon="-5.805140">
        <ele>367.4</ele>
        <time>2009-12-17T14:57:54Z</time>
      </trkpt>
      <trkpt lat="38.835060" lon="-5.804790">
        <ele>367.8</ele>
        <time>2009-12-17T14:58:18Z</time>
      </trkpt>
      <trkpt lat="38.834840" lon="-5.804290">
        <ele>368.8</ele>
        <time>2009-12-17T14:58:50Z</time>
      </trkpt>
      <trkpt lat="38.834780" lon="-5.804000">
        <ele>371.2</ele>
        <time>2009-12-17T14:59:07Z</time>
      </trkpt>
      <trkpt lat="38.834720" lon="-5.803700">
        <ele>371.7</ele>
        <time>2009-12-17T14:59:31Z</time>
      </trkpt>
      <trkpt lat="38.834640" lon="-5.803590">
        <ele>372.2</ele>
        <time>2009-12-17T15:00:36Z</time>
      </trkpt>
      <trkpt lat="38.834700" lon="-5.803450">
        <ele>372.6</ele>
        <time>2009-12-17T15:01:47Z</time>
      </trkpt>
      <trkpt lat="38.834660" lon="-5.803230">
        <ele>375.1</ele>
        <time>2009-12-17T15:02:01Z</time>
      </trkpt>
      <trkpt lat="38.834650" lon="-5.803220">
        <ele>373.6</ele>
        <time>2009-12-17T15:02:24Z</time>
      </trkpt>
      <trkpt lat="38.834610" lon="-5.802900">
        <ele>376.0</ele>
        <time>2009-12-17T15:02:57Z</time>
      </trkpt>
      <trkpt lat="38.834560" lon="-5.802710">
        <ele>378.4</ele>
        <time>2009-12-17T15:03:23Z</time>
      </trkpt>
      <trkpt lat="38.834480" lon="-5.802220">
        <ele>380.3</ele>
        <time>2009-12-17T15:03:53Z</time>
      </trkpt>
      <trkpt lat="38.834290" lon="-5.801660">
        <ele>383.7</ele>
        <time>2009-12-17T15:04:29Z</time>
      </trkpt>
      <trkpt lat="38.834210" lon="-5.801360">
        <ele>385.6</ele>
        <time>2009-12-17T15:04:51Z</time>
      </trkpt>
      <trkpt lat="38.834240" lon="-5.800930">
        <ele>388.5</ele>
        <time>2009-12-17T15:05:17Z</time>
      </trkpt>
      <trkpt lat="38.834240" lon="-5.800520">
        <ele>390.4</ele>
        <time>2009-12-17T15:05:43Z</time>
      </trkpt>
      <trkpt lat="38.834150" lon="-5.800070">
        <ele>391.4</ele>
        <time>2009-12-17T15:06:09Z</time>
      </trkpt>
      <trkpt lat="38.834130" lon="-5.800000">
        <ele>390.0</ele>
        <time>2009-12-17T15:06:13Z</time>
      </trkpt>
      <trkpt lat="38.833950" lon="-5.799360">
        <ele>390.9</ele>
        <time>2009-12-17T15:06:50Z</time>
      </trkpt>
      <trkpt lat="38.833820" lon="-5.799070">
        <ele>391.4</ele>
        <time>2009-12-17T15:07:09Z</time>
      </trkpt>
      <trkpt lat="38.833780" lon="-5.798930">
        <ele>391.9</ele>
        <time>2009-12-17T15:07:19Z</time>
      </trkpt>
      <trkpt lat="38.833760" lon="-5.798920">
        <ele>391.9</ele>
        <time>2009-12-17T15:07:21Z</time>
      </trkpt>
      <trkpt lat="38.833750" lon="-5.798860">
        <ele>390.9</ele>
        <time>2009-12-17T15:07:25Z</time>
      </trkpt>
      <trkpt lat="38.833730" lon="-5.798790">
        <ele>390.9</ele>
        <time>2009-12-17T15:07:31Z</time>
      </trkpt>
      <trkpt lat="38.833590" lon="-5.798540">
        <ele>388.5</ele>
        <time>2009-12-17T15:07:50Z</time>
      </trkpt>
      <trkpt lat="38.833460" lon="-5.798260">
        <ele>385.1</ele>
        <time>2009-12-17T15:08:08Z</time>
      </trkpt>
      <trkpt lat="38.833400" lon="-5.798160">
        <ele>383.2</ele>
        <time>2009-12-17T15:08:15Z</time>
      </trkpt>
      <trkpt lat="38.833190" lon="-5.797700">
        <ele>381.3</ele>
        <time>2009-12-17T15:08:45Z</time>
      </trkpt>
      <trkpt lat="38.833010" lon="-5.797350">
        <ele>380.8</ele>
        <time>2009-12-17T15:09:09Z</time>
      </trkpt>
      <trkpt lat="38.832950" lon="-5.796860">
        <ele>381.8</ele>
        <time>2009-12-17T15:09:38Z</time>
      </trkpt>
      <trkpt lat="38.832910" lon="-5.796500">
        <ele>384.7</ele>
        <time>2009-12-17T15:10:01Z</time>
      </trkpt>
      <trkpt lat="38.832890" lon="-5.796430">
        <ele>384.7</ele>
        <time>2009-12-17T15:10:06Z</time>
      </trkpt>
      <trkpt lat="38.832860" lon="-5.796190">
        <ele>384.2</ele>
        <time>2009-12-17T15:10:22Z</time>
      </trkpt>
      <trkpt lat="38.832840" lon="-5.796070">
        <ele>383.7</ele>
        <time>2009-12-17T15:10:29Z</time>
      </trkpt>
      <trkpt lat="38.832690" lon="-5.795690">
        <ele>382.2</ele>
        <time>2009-12-17T15:10:55Z</time>
      </trkpt>
      <trkpt lat="38.832660" lon="-5.795580">
        <ele>380.8</ele>
        <time>2009-12-17T15:11:24Z</time>
      </trkpt>
      <trkpt lat="38.832630" lon="-5.795290">
        <ele>377.5</ele>
        <time>2009-12-17T15:11:41Z</time>
      </trkpt>
      <trkpt lat="38.832510" lon="-5.794920">
        <ele>374.6</ele>
        <time>2009-12-17T15:12:03Z</time>
      </trkpt>
      <trkpt lat="38.832370" lon="-5.794510">
        <ele>371.7</ele>
        <time>2009-12-17T15:12:27Z</time>
      </trkpt>
      <trkpt lat="38.832270" lon="-5.794220">
        <ele>374.6</ele>
        <time>2009-12-17T15:12:45Z</time>
      </trkpt>
      <trkpt lat="38.832200" lon="-5.793990">
        <ele>374.1</ele>
        <time>2009-12-17T15:13:08Z</time>
      </trkpt>
      <trkpt lat="38.832010" lon="-5.793410">
        <ele>375.1</ele>
        <time>2009-12-17T15:13:42Z</time>
      </trkpt>
      <trkpt lat="38.832000" lon="-5.793360">
        <ele>377.0</ele>
        <time>2009-12-17T15:13:45Z</time>
      </trkpt>
      <trkpt lat="38.831850" lon="-5.792860">
        <ele>378.4</ele>
        <time>2009-12-17T15:14:16Z</time>
      </trkpt>
      <trkpt lat="38.831630" lon="-5.792330">
        <ele>377.0</ele>
        <time>2009-12-17T15:14:49Z</time>
      </trkpt>
      <trkpt lat="38.831610" lon="-5.792280">
        <ele>376.0</ele>
        <time>2009-12-17T15:14:52Z</time>
      </trkpt>
      <trkpt lat="38.831510" lon="-5.792020">
        <ele>372.6</ele>
        <time>2009-12-17T15:15:08Z</time>
      </trkpt>
      <trkpt lat="38.831320" lon="-5.791520">
        <ele>370.2</ele>
        <time>2009-12-17T15:15:42Z</time>
      </trkpt>
      <trkpt lat="38.831240" lon="-5.791150">
        <ele>370.2</ele>
        <time>2009-12-17T15:16:22Z</time>
      </trkpt>
      <trkpt lat="38.831250" lon="-5.790780">
        <ele>370.2</ele>
        <time>2009-12-17T15:17:49Z</time>
      </trkpt>
      <trkpt lat="38.831270" lon="-5.790920">
        <ele>370.7</ele>
        <time>2009-12-17T15:18:13Z</time>
      </trkpt>
      <trkpt lat="38.831270" lon="-5.790910">
        <ele>371.2</ele>
        <time>2009-12-17T15:18:14Z</time>
      </trkpt>
      <trkpt lat="38.831260" lon="-5.790800">
        <ele>369.8</ele>
        <time>2009-12-17T15:18:21Z</time>
      </trkpt>
      <trkpt lat="38.831280" lon="-5.790370">
        <ele>371.2</ele>
        <time>2009-12-17T15:18:47Z</time>
      </trkpt>
      <trkpt lat="38.831260" lon="-5.790360">
        <ele>370.2</ele>
        <time>2009-12-17T15:19:06Z</time>
      </trkpt>
      <trkpt lat="38.831280" lon="-5.790360">
        <ele>370.7</ele>
        <time>2009-12-17T15:19:32Z</time>
      </trkpt>
      <trkpt lat="38.831290" lon="-5.790330">
        <ele>371.2</ele>
        <time>2009-12-17T15:20:10Z</time>
      </trkpt>
      <trkpt lat="38.831290" lon="-5.790120">
        <ele>371.7</ele>
        <time>2009-12-17T15:20:29Z</time>
      </trkpt>
      <trkpt lat="38.831310" lon="-5.789760">
        <ele>373.6</ele>
        <time>2009-12-17T15:20:53Z</time>
      </trkpt>
      <trkpt lat="38.831340" lon="-5.789440">
        <ele>375.1</ele>
        <time>2009-12-17T15:21:17Z</time>
      </trkpt>
      <trkpt lat="38.831380" lon="-5.789510">
        <ele>374.6</ele>
        <time>2009-12-17T15:21:23Z</time>
      </trkpt>
      <trkpt lat="38.831480" lon="-5.789520">
        <ele>375.1</ele>
        <time>2009-12-17T15:21:48Z</time>
      </trkpt>
      <trkpt lat="38.831510" lon="-5.789480">
        <ele>374.1</ele>
        <time>2009-12-17T15:22:04Z</time>
      </trkpt>
      <trkpt lat="38.831590" lon="-5.789340">
        <ele>374.6</ele>
        <time>2009-12-17T15:22:28Z</time>
      </trkpt>
      <trkpt lat="38.831690" lon="-5.789170">
        <ele>377.5</ele>
        <time>2009-12-17T15:22:41Z</time>
      </trkpt>
      <trkpt lat="38.831950" lon="-5.788850">
        <ele>378.4</ele>
        <time>2009-12-17T15:23:08Z</time>
      </trkpt>
      <trkpt lat="38.832060" lon="-5.788830">
        <ele>380.3</ele>
        <time>2009-12-17T15:23:17Z</time>
      </trkpt>
      <trkpt lat="38.832080" lon="-5.788830">
        <ele>382.2</ele>
        <time>2009-12-17T15:23:19Z</time>
      </trkpt>
      <trkpt lat="38.832320" lon="-5.788860">
        <ele>378.4</ele>
        <time>2009-12-17T15:23:36Z</time>
      </trkpt>
      <trkpt lat="38.832330" lon="-5.788860">
        <ele>378.4</ele>
        <time>2009-12-17T15:23:37Z</time>
      </trkpt>
      <trkpt lat="38.832630" lon="-5.788880">
        <ele>377.0</ele>
        <time>2009-12-17T15:23:59Z</time>
      </trkpt>
      <trkpt lat="38.832760" lon="-5.788930">
        <ele>375.5</ele>
        <time>2009-12-17T15:24:09Z</time>
      </trkpt>
      <trkpt lat="38.833100" lon="-5.788790">
        <ele>375.5</ele>
        <time>2009-12-17T15:24:33Z</time>
      </trkpt>
      <trkpt lat="38.833640" lon="-5.788770">
        <ele>377.0</ele>
        <time>2009-12-17T15:25:09Z</time>
      </trkpt>
      <trkpt lat="38.833930" lon="-5.788690">
        <ele>380.3</ele>
        <time>2009-12-17T15:25:31Z</time>
      </trkpt>
      <trkpt lat="38.834190" lon="-5.788570">
        <ele>377.0</ele>
        <time>2009-12-17T15:25:50Z</time>
      </trkpt>
      <trkpt lat="38.834600" lon="-5.788440">
        <ele>374.6</ele>
        <time>2009-12-17T15:26:20Z</time>
      </trkpt>
      <trkpt lat="38.835110" lon="-5.788310">
        <ele>376.0</ele>
        <time>2009-12-17T15:26:56Z</time>
      </trkpt>
      <trkpt lat="38.835500" lon="-5.788350">
        <ele>377.5</ele>
        <time>2009-12-17T15:27:24Z</time>
      </trkpt>
      <trkpt lat="38.835570" lon="-5.788380">
        <ele>380.8</ele>
        <time>2009-12-17T15:27:29Z</time>
      </trkpt>
      <trkpt lat="38.835580" lon="-5.788390">
        <ele>380.3</ele>
        <time>2009-12-17T15:27:30Z</time>
      </trkpt>
      <trkpt lat="38.835620" lon="-5.788410">
        <ele>377.0</ele>
        <time>2009-12-17T15:27:33Z</time>
      </trkpt>
      <trkpt lat="38.835710" lon="-5.788450">
        <ele>376.0</ele>
        <time>2009-12-17T15:27:40Z</time>
      </trkpt>
      <trkpt lat="38.836060" lon="-5.788650">
        <ele>376.0</ele>
        <time>2009-12-17T15:28:07Z</time>
      </trkpt>
      <trkpt lat="38.836120" lon="-5.788690">
        <ele>379.4</ele>
        <time>2009-12-17T15:28:12Z</time>
      </trkpt>
      <trkpt lat="38.836160" lon="-5.788710">
        <ele>376.0</ele>
        <time>2009-12-17T15:28:15Z</time>
      </trkpt>
      <trkpt lat="38.836170" lon="-5.788720">
        <ele>376.5</ele>
        <time>2009-12-17T15:28:16Z</time>
      </trkpt>
      <trkpt lat="38.836210" lon="-5.788740">
        <ele>378.9</ele>
        <time>2009-12-17T15:28:19Z</time>
      </trkpt>
      <trkpt lat="38.836420" lon="-5.788840">
        <ele>378.9</ele>
        <time>2009-12-17T15:28:35Z</time>
      </trkpt>
      <trkpt lat="38.836670" lon="-5.789060">
        <ele>378.9</ele>
        <time>2009-12-17T15:28:57Z</time>
      </trkpt>
      <trkpt lat="38.837120" lon="-5.789230">
        <ele>378.4</ele>
        <time>2009-12-17T15:29:30Z</time>
      </trkpt>
      <trkpt lat="38.837320" lon="-5.789330">
        <ele>378.9</ele>
        <time>2009-12-17T15:29:46Z</time>
      </trkpt>
      <trkpt lat="38.837440" lon="-5.789380">
        <ele>377.0</ele>
        <time>2009-12-17T15:29:56Z</time>
      </trkpt>
      <trkpt lat="38.837620" lon="-5.789450">
        <ele>378.4</ele>
        <time>2009-12-17T15:30:20Z</time>
      </trkpt>
      <trkpt lat="38.838050" lon="-5.789560">
        <ele>377.9</ele>
        <time>2009-12-17T15:30:51Z</time>
      </trkpt>
      <trkpt lat="38.838330" lon="-5.789670">
        <ele>378.9</ele>
        <time>2009-12-17T15:31:12Z</time>
      </trkpt>
      <trkpt lat="38.838800" lon="-5.789630">
        <ele>377.5</ele>
        <time>2009-12-17T15:31:48Z</time>
      </trkpt>
      <trkpt lat="38.839230" lon="-5.789450">
        <ele>376.5</ele>
        <time>2009-12-17T15:32:24Z</time>
      </trkpt>
      <trkpt lat="38.839280" lon="-5.789430">
        <ele>375.5</ele>
        <time>2009-12-17T15:32:28Z</time>
      </trkpt>
      <trkpt lat="38.839700" lon="-5.789350">
        <ele>375.5</ele>
        <time>2009-12-17T15:33:00Z</time>
      </trkpt>
      <trkpt lat="38.840060" lon="-5.789340">
        <ele>373.1</ele>
        <time>2009-12-17T15:33:27Z</time>
      </trkpt>
      <trkpt lat="38.840490" lon="-5.789370">
        <ele>373.1</ele>
        <time>2009-12-17T15:33:59Z</time>
      </trkpt>
      <trkpt lat="38.840900" lon="-5.789540">
        <ele>375.5</ele>
        <time>2009-12-17T15:34:31Z</time>
      </trkpt>
      <trkpt lat="38.841240" lon="-5.789570">
        <ele>372.2</ele>
        <time>2009-12-17T15:34:57Z</time>
      </trkpt>
      <trkpt lat="38.841270" lon="-5.789570">
        <ele>370.7</ele>
        <time>2009-12-17T15:34:59Z</time>
      </trkpt>
      <trkpt lat="38.841620" lon="-5.789440">
        <ele>370.7</ele>
        <time>2009-12-17T15:35:25Z</time>
      </trkpt>
      <trkpt lat="38.842080" lon="-5.789340">
        <ele>370.2</ele>
        <time>2009-12-17T15:35:59Z</time>
      </trkpt>
      <trkpt lat="38.842370" lon="-5.789160">
        <ele>365.9</ele>
        <time>2009-12-17T15:36:22Z</time>
      </trkpt>
      <trkpt lat="38.842380" lon="-5.789160">
        <ele>366.9</ele>
        <time>2009-12-17T15:36:23Z</time>
      </trkpt>
      <trkpt lat="38.842500" lon="-5.789100">
        <ele>365.9</ele>
        <time>2009-12-17T15:36:38Z</time>
      </trkpt>
      <trkpt lat="38.842540" lon="-5.789080">
        <ele>365.4</ele>
        <time>2009-12-17T15:36:41Z</time>
      </trkpt>
      <trkpt lat="38.842630" lon="-5.789070">
        <ele>365.9</ele>
        <time>2009-12-17T15:36:47Z</time>
      </trkpt>
      <trkpt lat="38.842940" lon="-5.788850">
        <ele>365.0</ele>
        <time>2009-12-17T15:37:16Z</time>
      </trkpt>
      <trkpt lat="38.843070" lon="-5.788780">
        <ele>365.0</ele>
        <time>2009-12-17T15:37:27Z</time>
      </trkpt>
      <trkpt lat="38.843420" lon="-5.788500">
        <ele>363.5</ele>
        <time>2009-12-17T15:37:58Z</time>
      </trkpt>
      <trkpt lat="38.843510" lon="-5.788460">
        <ele>363.0</ele>
        <time>2009-12-17T15:38:28Z</time>
      </trkpt>
      <trkpt lat="38.843770" lon="-5.788280">
        <ele>363.0</ele>
        <time>2009-12-17T15:38:50Z</time>
      </trkpt>
      <trkpt lat="38.844190" lon="-5.788080">
        <ele>362.6</ele>
        <time>2009-12-17T15:39:20Z</time>
      </trkpt>
      <trkpt lat="38.844500" lon="-5.787970">
        <ele>361.1</ele>
        <time>2009-12-17T15:39:51Z</time>
      </trkpt>
      <trkpt lat="38.844510" lon="-5.787970">
        <ele>360.2</ele>
        <time>2009-12-17T15:40:17Z</time>
      </trkpt>
      <trkpt lat="38.844540" lon="-5.787930">
        <ele>361.1</ele>
        <time>2009-12-17T15:40:21Z</time>
      </trkpt>
      <trkpt lat="38.844690" lon="-5.787840">
        <ele>361.6</ele>
        <time>2009-12-17T15:40:36Z</time>
      </trkpt>
      <trkpt lat="38.844790" lon="-5.787820">
        <ele>359.7</ele>
        <time>2009-12-17T15:40:44Z</time>
      </trkpt>
      <trkpt lat="38.845290" lon="-5.787810">
        <ele>359.2</ele>
        <time>2009-12-17T15:41:17Z</time>
      </trkpt>
      <trkpt lat="38.845510" lon="-5.787770">
        <ele>355.8</ele>
        <time>2009-12-17T15:41:34Z</time>
      </trkpt>
      <trkpt lat="38.845690" lon="-5.787620">
        <ele>355.8</ele>
        <time>2009-12-17T15:41:52Z</time>
      </trkpt>
      <trkpt lat="38.845800" lon="-5.787460">
        <ele>357.3</ele>
        <time>2009-12-17T15:42:05Z</time>
      </trkpt>
      <trkpt lat="38.845850" lon="-5.787410">
        <ele>357.3</ele>
        <time>2009-12-17T15:42:10Z</time>
      </trkpt>
      <trkpt lat="38.846080" lon="-5.787180">
        <ele>356.8</ele>
        <time>2009-12-17T15:42:31Z</time>
      </trkpt>
      <trkpt lat="38.846290" lon="-5.786930">
        <ele>354.4</ele>
        <time>2009-12-17T15:42:51Z</time>
      </trkpt>
      <trkpt lat="38.846510" lon="-5.786590">
        <ele>354.9</ele>
        <time>2009-12-17T15:43:17Z</time>
      </trkpt>
      <trkpt lat="38.846730" lon="-5.786190">
        <ele>353.9</ele>
        <time>2009-12-17T15:43:45Z</time>
      </trkpt>
      <trkpt lat="38.846940" lon="-5.785820">
        <ele>353.9</ele>
        <time>2009-12-17T15:44:10Z</time>
      </trkpt>
      <trkpt lat="38.847140" lon="-5.785540">
        <ele>354.4</ele>
        <time>2009-12-17T15:44:32Z</time>
      </trkpt>
      <trkpt lat="38.847230" lon="-5.785490">
        <ele>351.5</ele>
        <time>2009-12-17T15:44:39Z</time>
      </trkpt>
      <trkpt lat="38.847300" lon="-5.785460">
        <ele>351.0</ele>
        <time>2009-12-17T15:44:44Z</time>
      </trkpt>
      <trkpt lat="38.847450" lon="-5.785340">
        <ele>351.0</ele>
        <time>2009-12-17T15:44:56Z</time>
      </trkpt>
      <trkpt lat="38.847490" lon="-5.785300">
        <ele>351.5</ele>
        <time>2009-12-17T15:45:00Z</time>
      </trkpt>
      <trkpt lat="38.847550" lon="-5.785250">
        <ele>352.0</ele>
        <time>2009-12-17T15:45:05Z</time>
      </trkpt>
      <trkpt lat="38.847600" lon="-5.785180">
        <ele>351.5</ele>
        <time>2009-12-17T15:45:11Z</time>
      </trkpt>
      <trkpt lat="38.847640" lon="-5.785140">
        <ele>351.5</ele>
        <time>2009-12-17T15:45:14Z</time>
      </trkpt>
      <trkpt lat="38.847690" lon="-5.785090">
        <ele>350.6</ele>
        <time>2009-12-17T15:45:18Z</time>
      </trkpt>
      <trkpt lat="38.847710" lon="-5.785050">
        <ele>349.6</ele>
        <time>2009-12-17T15:45:20Z</time>
      </trkpt>
      <trkpt lat="38.847800" lon="-5.784710">
        <ele>347.7</ele>
        <time>2009-12-17T15:45:38Z</time>
      </trkpt>
      <trkpt lat="38.847890" lon="-5.784390">
        <ele>347.2</ele>
        <time>2009-12-17T15:45:55Z</time>
      </trkpt>
      <trkpt lat="38.847930" lon="-5.784340">
        <ele>347.2</ele>
        <time>2009-12-17T15:45:59Z</time>
      </trkpt>
      <trkpt lat="38.848080" lon="-5.784200">
        <ele>346.7</ele>
        <time>2009-12-17T15:47:41Z</time>
      </trkpt>
      <trkpt lat="38.848130" lon="-5.784170">
        <ele>346.7</ele>
        <time>2009-12-17T15:47:45Z</time>
      </trkpt>
      <trkpt lat="38.848350" lon="-5.784060">
        <ele>344.3</ele>
        <time>2009-12-17T15:48:13Z</time>
      </trkpt>
      <trkpt lat="38.848690" lon="-5.783850">
        <ele>341.9</ele>
        <time>2009-12-17T15:48:40Z</time>
      </trkpt>
      <trkpt lat="38.849050" lon="-5.783500">
        <ele>338.5</ele>
        <time>2009-12-17T15:49:12Z</time>
      </trkpt>
      <trkpt lat="38.849430" lon="-5.783120">
        <ele>336.6</ele>
        <time>2009-12-17T15:49:45Z</time>
      </trkpt>
      <trkpt lat="38.849480" lon="-5.783080">
        <ele>336.1</ele>
        <time>2009-12-17T15:49:49Z</time>
      </trkpt>
      <trkpt lat="38.849710" lon="-5.782790">
        <ele>336.1</ele>
        <time>2009-12-17T15:50:13Z</time>
      </trkpt>
      <trkpt lat="38.850080" lon="-5.782620">
        <ele>335.6</ele>
        <time>2009-12-17T15:50:41Z</time>
      </trkpt>
      <trkpt lat="38.850260" lon="-5.782470">
        <ele>339.0</ele>
        <time>2009-12-17T15:50:57Z</time>
      </trkpt>
      <trkpt lat="38.850270" lon="-5.782460">
        <ele>339.5</ele>
        <time>2009-12-17T15:50:58Z</time>
      </trkpt>
      <trkpt lat="38.850440" lon="-5.782190">
        <ele>340.9</ele>
        <time>2009-12-17T15:51:25Z</time>
      </trkpt>
      <trkpt lat="38.850660" lon="-5.781740">
        <ele>341.9</ele>
        <time>2009-12-17T15:51:56Z</time>
      </trkpt>
      <trkpt lat="38.850850" lon="-5.781240">
        <ele>342.8</ele>
        <time>2009-12-17T15:52:28Z</time>
      </trkpt>
      <trkpt lat="38.851080" lon="-5.780830">
        <ele>343.8</ele>
        <time>2009-12-17T15:52:57Z</time>
      </trkpt>
      <trkpt lat="38.851270" lon="-5.780460">
        <ele>346.2</ele>
        <time>2009-12-17T15:53:24Z</time>
      </trkpt>
      <trkpt lat="38.851510" lon="-5.780130">
        <ele>344.3</ele>
        <time>2009-12-17T15:53:52Z</time>
      </trkpt>
      <trkpt lat="38.851800" lon="-5.779840">
        <ele>342.4</ele>
        <time>2009-12-17T15:54:19Z</time>
      </trkpt>
      <trkpt lat="38.851930" lon="-5.779730">
        <ele>339.5</ele>
        <time>2009-12-17T15:54:31Z</time>
      </trkpt>
      <trkpt lat="38.852200" lon="-5.779530">
        <ele>338.1</ele>
        <time>2009-12-17T15:54:53Z</time>
      </trkpt>
      <trkpt lat="38.852540" lon="-5.779220">
        <ele>337.6</ele>
        <time>2009-12-17T15:55:23Z</time>
      </trkpt>
      <trkpt lat="38.852870" lon="-5.779060">
        <ele>336.6</ele>
        <time>2009-12-17T15:55:47Z</time>
      </trkpt>
      <trkpt lat="38.853250" lon="-5.778790">
        <ele>336.6</ele>
        <time>2009-12-17T15:56:17Z</time>
      </trkpt>
      <trkpt lat="38.853610" lon="-5.778320">
        <ele>333.2</ele>
        <time>2009-12-17T15:56:53Z</time>
      </trkpt>
      <trkpt lat="38.853800" lon="-5.778100">
        <ele>330.3</ele>
        <time>2009-12-17T15:57:11Z</time>
      </trkpt>
      <trkpt lat="38.854250" lon="-5.777740">
        <ele>328.9</ele>
        <time>2009-12-17T15:57:47Z</time>
      </trkpt>
      <trkpt lat="38.854510" lon="-5.777240">
        <ele>327.5</ele>
        <time>2009-12-17T15:58:20Z</time>
      </trkpt>
      <trkpt lat="38.854560" lon="-5.777130">
        <ele>327.0</ele>
        <time>2009-12-17T15:59:15Z</time>
      </trkpt>
      <trkpt lat="38.854440" lon="-5.776820">
        <ele>328.9</ele>
        <time>2009-12-17T15:59:37Z</time>
      </trkpt>
      <trkpt lat="38.854420" lon="-5.776710">
        <ele>327.9</ele>
        <time>2009-12-17T16:01:04Z</time>
      </trkpt>
      <trkpt lat="38.854390" lon="-5.776630">
        <ele>327.9</ele>
        <time>2009-12-17T16:01:34Z</time>
      </trkpt>
      <trkpt lat="38.854290" lon="-5.776120">
        <ele>325.6</ele>
        <time>2009-12-17T16:02:03Z</time>
      </trkpt>
      <trkpt lat="38.854270" lon="-5.775820">
        <ele>324.1</ele>
        <time>2009-12-17T16:02:25Z</time>
      </trkpt>
      <trkpt lat="38.854090" lon="-5.775360">
        <ele>324.6</ele>
        <time>2009-12-17T16:02:53Z</time>
      </trkpt>
      <trkpt lat="38.853940" lon="-5.774950">
        <ele>324.6</ele>
        <time>2009-12-17T16:03:18Z</time>
      </trkpt>
      <trkpt lat="38.853680" lon="-5.774410">
        <ele>327.9</ele>
        <time>2009-12-17T16:03:53Z</time>
      </trkpt>
      <trkpt lat="38.853530" lon="-5.774060">
        <ele>327.9</ele>
        <time>2009-12-17T16:04:15Z</time>
      </trkpt>
      <trkpt lat="38.853400" lon="-5.773800">
        <ele>328.4</ele>
        <time>2009-12-17T16:04:47Z</time>
      </trkpt>
      <trkpt lat="38.853390" lon="-5.773800">
        <ele>328.4</ele>
        <time>2009-12-17T16:04:55Z</time>
      </trkpt>
      <trkpt lat="38.852960" lon="-5.773340">
        <ele>329.4</ele>
        <time>2009-12-17T16:05:34Z</time>
      </trkpt>
      <trkpt lat="38.852560" lon="-5.772900">
        <ele>329.9</ele>
        <time>2009-12-17T16:06:10Z</time>
      </trkpt>
      <trkpt lat="38.852480" lon="-5.772780">
        <ele>332.3</ele>
        <time>2009-12-17T16:06:19Z</time>
      </trkpt>
      <trkpt lat="38.852320" lon="-5.772500">
        <ele>331.8</ele>
        <time>2009-12-17T16:07:33Z</time>
      </trkpt>
      <trkpt lat="38.852270" lon="-5.772340">
        <ele>331.3</ele>
        <time>2009-12-17T16:07:42Z</time>
      </trkpt>
      <trkpt lat="38.852160" lon="-5.772130">
        <ele>330.3</ele>
        <time>2009-12-17T16:07:55Z</time>
      </trkpt>
      <trkpt lat="38.852050" lon="-5.771920">
        <ele>328.9</ele>
        <time>2009-12-17T16:08:08Z</time>
      </trkpt>
      <trkpt lat="38.851970" lon="-5.771730">
        <ele>327.9</ele>
        <time>2009-12-17T16:08:19Z</time>
      </trkpt>
      <trkpt lat="38.851930" lon="-5.771670">
        <ele>327.9</ele>
        <time>2009-12-17T16:08:24Z</time>
      </trkpt>
      <trkpt lat="38.851750" lon="-5.771350">
        <ele>327.9</ele>
        <time>2009-12-17T16:08:44Z</time>
      </trkpt>
      <trkpt lat="38.851700" lon="-5.771280">
        <ele>328.9</ele>
        <time>2009-12-17T16:08:49Z</time>
      </trkpt>
      <trkpt lat="38.851590" lon="-5.771160">
        <ele>329.4</ele>
        <time>2009-12-17T16:08:59Z</time>
      </trkpt>
      <trkpt lat="38.851540" lon="-5.771070">
        <ele>329.4</ele>
        <time>2009-12-17T16:09:05Z</time>
      </trkpt>
      <trkpt lat="38.851380" lon="-5.770870">
        <ele>328.9</ele>
        <time>2009-12-17T16:09:19Z</time>
      </trkpt>
      <trkpt lat="38.851270" lon="-5.770860">
        <ele>328.9</ele>
        <time>2009-12-17T16:09:27Z</time>
      </trkpt>
      <trkpt lat="38.851050" lon="-5.770960">
        <ele>328.4</ele>
        <time>2009-12-17T16:09:43Z</time>
      </trkpt>
      <trkpt lat="38.850880" lon="-5.771000">
        <ele>331.8</ele>
        <time>2009-12-17T16:09:55Z</time>
      </trkpt>
      <trkpt lat="38.850470" lon="-5.770860">
        <ele>331.8</ele>
        <time>2009-12-17T16:10:24Z</time>
      </trkpt>
      <trkpt lat="38.850170" lon="-5.770740">
        <ele>335.2</ele>
        <time>2009-12-17T16:10:48Z</time>
      </trkpt>
      <trkpt lat="38.849920" lon="-5.770750">
        <ele>338.1</ele>
        <time>2009-12-17T16:11:12Z</time>
      </trkpt>
      <trkpt lat="38.849740" lon="-5.770830">
        <ele>338.1</ele>
        <time>2009-12-17T16:11:38Z</time>
      </trkpt>
      <trkpt lat="38.849600" lon="-5.770800">
        <ele>338.5</ele>
        <time>2009-12-17T16:12:09Z</time>
      </trkpt>
      <trkpt lat="38.849510" lon="-5.770900">
        <ele>337.1</ele>
        <time>2009-12-17T16:12:34Z</time>
      </trkpt>
      <trkpt lat="38.849510" lon="-5.770900">
        <ele>338.5</ele>
        <time>2009-12-17T16:12:37Z</time>
      </trkpt>
      <trkpt lat="38.849530" lon="-5.770820">
        <ele>337.6</ele>
        <time>2009-12-17T16:12:55Z</time>
      </trkpt>
      <trkpt lat="38.849790" lon="-5.770720">
        <ele>339.5</ele>
        <time>2009-12-17T16:14:38Z</time>
      </trkpt>
      <trkpt lat="38.849990" lon="-5.770690">
        <ele>336.6</ele>
        <time>2009-12-17T16:15:04Z</time>
      </trkpt>
      <trkpt lat="38.850160" lon="-5.770730">
        <ele>333.7</ele>
        <time>2009-12-17T16:15:47Z</time>
      </trkpt>
      <trkpt lat="38.850680" lon="-5.770880">
        <ele>331.3</ele>
        <time>2009-12-17T16:16:23Z</time>
      </trkpt>
      <trkpt lat="38.851240" lon="-5.770850">
        <ele>330.3</ele>
        <time>2009-12-17T16:17:02Z</time>
      </trkpt>
      <trkpt lat="38.851360" lon="-5.770850">
        <ele>328.9</ele>
        <time>2009-12-17T16:17:27Z</time>
      </trkpt>
      <trkpt lat="38.851610" lon="-5.771100">
        <ele>327.9</ele>
        <time>2009-12-17T16:18:07Z</time>
      </trkpt>
      <trkpt lat="38.851990" lon="-5.771610">
        <ele>327.5</ele>
        <time>2009-12-17T16:18:43Z</time>
      </trkpt>
      <trkpt lat="38.852230" lon="-5.772100">
        <ele>328.4</ele>
        <time>2009-12-17T16:19:14Z</time>
      </trkpt>
      <trkpt lat="38.852280" lon="-5.772240">
        <ele>329.9</ele>
        <time>2009-12-17T16:19:22Z</time>
      </trkpt>
      <trkpt lat="38.852350" lon="-5.772420">
        <ele>329.4</ele>
        <time>2009-12-17T16:19:33Z</time>
      </trkpt>
      <trkpt lat="38.852500" lon="-5.772830">
        <ele>330.3</ele>
        <time>2009-12-17T16:19:57Z</time>
      </trkpt>
      <trkpt lat="38.852570" lon="-5.772930">
        <ele>329.4</ele>
        <time>2009-12-17T16:20:04Z</time>
      </trkpt>
      <trkpt lat="38.852820" lon="-5.773220">
        <ele>328.4</ele>
        <time>2009-12-17T16:20:28Z</time>
      </trkpt>
      <trkpt lat="38.852890" lon="-5.773280">
        <ele>328.4</ele>
        <time>2009-12-17T16:20:34Z</time>
      </trkpt>
      <trkpt lat="38.853230" lon="-5.773590">
        <ele>327.9</ele>
        <time>2009-12-17T16:21:01Z</time>
      </trkpt>
      <trkpt lat="38.853390" lon="-5.773860">
        <ele>327.0</ele>
        <time>2009-12-17T16:21:20Z</time>
      </trkpt>
      <trkpt lat="38.853400" lon="-5.773880">
        <ele>327.5</ele>
        <time>2009-12-17T16:21:21Z</time>
      </trkpt>
      <trkpt lat="38.853490" lon="-5.774130">
        <ele>327.0</ele>
        <time>2009-12-17T16:21:37Z</time>
      </trkpt>
      <trkpt lat="38.853540" lon="-5.774210">
        <ele>327.0</ele>
        <time>2009-12-17T16:21:42Z</time>
      </trkpt>
      <trkpt lat="38.853780" lon="-5.774660">
        <ele>326.5</ele>
        <time>2009-12-17T16:22:09Z</time>
      </trkpt>
      <trkpt lat="38.853830" lon="-5.774750">
        <ele>326.0</ele>
        <time>2009-12-17T16:22:15Z</time>
      </trkpt>
      <trkpt lat="38.853880" lon="-5.774870">
        <ele>323.6</ele>
        <time>2009-12-17T16:22:22Z</time>
      </trkpt>
      <trkpt lat="38.854070" lon="-5.775300">
        <ele>321.2</ele>
        <time>2009-12-17T16:22:48Z</time>
      </trkpt>
      <trkpt lat="38.854120" lon="-5.775460">
        <ele>324.6</ele>
        <time>2009-12-17T16:22:57Z</time>
      </trkpt>
      <trkpt lat="38.854410" lon="-5.776080">
        <ele>322.2</ele>
        <time>2009-12-17T16:23:37Z</time>
      </trkpt>
      <trkpt lat="38.854412" lon="-5.776190">
        <ele>322.2</ele>
        <time>2009-12-17T16:23:55Z</time>
      </trkpt>
      <trkpt lat="38.854406" lon="-5.776466">
        <ele>322.2</ele>
        <time>2009-12-17T16:24:22Z</time>
      </trkpt>
      <trkpt lat="38.854430" lon="-5.776600">
        <ele>326.0</ele>
        <time>2009-12-17T16:24:39Z</time>
      </trkpt>
      <trkpt lat="38.854420" lon="-5.776620">
        <ele>327.0</ele>
        <time>2009-12-17T16:24:41Z</time>
      </trkpt>
      <trkpt lat="38.854420" lon="-5.776630">
        <ele>326.5</ele>
        <time>2009-12-17T16:24:42Z</time>
      </trkpt>
      <trkpt lat="38.854480" lon="-5.776730">
        <ele>324.6</ele>
        <time>2009-12-17T16:25:05Z</time>
      </trkpt>
      <trkpt lat="38.854600" lon="-5.776750">
        <ele>324.1</ele>
        <time>2009-12-17T16:25:14Z</time>
      </trkpt>
      <trkpt lat="38.854980" lon="-5.776550">
        <ele>324.1</ele>
        <time>2009-12-17T16:25:44Z</time>
      </trkpt>
      <trkpt lat="38.855090" lon="-5.776480">
        <ele>323.6</ele>
        <time>2009-12-17T16:25:53Z</time>
      </trkpt>
      <trkpt lat="38.855190" lon="-5.776440">
        <ele>323.6</ele>
        <time>2009-12-17T16:26:01Z</time>
      </trkpt>
      <trkpt lat="38.855492" lon="-5.776232">
        <ele>324.1</ele>
        <time>2009-12-17T16:40:23Z</time>
      </trkpt>
      <trkpt lat="38.855499" lon="-5.775956">
        <ele>323.6</ele>
        <time>2009-12-17T16:40:28Z</time>
      </trkpt>
      <trkpt lat="38.855575" lon="-5.775774">
        <ele>323.1</ele>
        <time>2009-12-17T16:40:40Z</time>
      </trkpt>
      <trkpt lat="38.855724" lon="-5.775596">
        <ele>322.2</ele>
        <time>2009-12-17T16:40:51Z</time>
      </trkpt>
      <trkpt lat="38.855872" lon="-5.775417">
        <ele>324.1</ele>
        <time>2009-12-17T16:41:05Z</time>
      </trkpt>
      <trkpt lat="38.856165" lon="-5.775244">
        <ele>326.5</ele>
        <time>2009-12-17T16:41:30Z</time>
      </trkpt>
      <trkpt lat="38.856675" lon="-5.774988">
        <ele>325.1</ele>
        <time>2009-12-17T16:41:44Z</time>
      </trkpt>
      <trkpt lat="38.856898" lon="-5.774720">
        <ele>326.0</ele>
        <time>2009-12-17T16:42:19Z</time>
      </trkpt>
      <trkpt lat="38.857417" lon="-5.774095">
        <ele>327.5</ele>
        <time>2009-12-17T16:42:51Z</time>
      </trkpt>
      <trkpt lat="38.858085" lon="-5.773291">
        <ele>327.9</ele>
        <time>2009-12-17T16:43:20Z</time>
      </trkpt>
      <trkpt lat="38.858900" lon="-5.772355">
        <ele>327.9</ele>
        <time>2009-12-17T16:43:49Z</time>
      </trkpt>
      <trkpt lat="38.859274" lon="-5.771770">
        <ele>328.9</ele>
        <time>2009-12-17T16:44:20Z</time>
      </trkpt>
      <trkpt lat="38.859335" lon="-5.772233">
        <ele>328.4</ele>
        <time>2009-12-17T16:44:42Z</time>
      </trkpt>
      <trkpt lat="38.859619" lon="-5.772429">
        <ele>331.8</ele>
        <time>2009-12-17T16:45:04Z</time>
      </trkpt>
      <trkpt lat="38.860123" lon="-5.772448">
        <ele>332.3</ele>
        <time>2009-12-17T16:45:36Z</time>
      </trkpt>
      <trkpt lat="38.860622" lon="-5.772698">
        <ele>333.7</ele>
        <time>2009-12-17T16:46:04Z</time>
      </trkpt>
      <trkpt lat="38.861050" lon="-5.772853">
        <ele>334.7</ele>
        <time>2009-12-17T16:46:34Z</time>
      </trkpt>
      <trkpt lat="38.861190" lon="-5.773043">
        <ele>337.1</ele>
        <time>2009-12-17T16:46:59Z</time>
      </trkpt>
      <trkpt lat="38.861258" lon="-5.773230">
        <ele>336.6</ele>
        <time>2009-12-17T16:47:04Z</time>
      </trkpt>
      <trkpt lat="38.861274" lon="-5.774060">
        <ele>338.5</ele>
        <time>2009-12-17T16:47:33Z</time>
      </trkpt>
      <trkpt lat="38.861216" lon="-5.774980">
        <ele>340.0</ele>
        <time>2009-12-17T16:48:07Z</time>
      </trkpt>
      <trkpt lat="38.860988" lon="-5.775478">
        <ele>341.9</ele>
        <time>2009-12-17T16:48:16Z</time>
      </trkpt>
      <trkpt lat="38.861000" lon="-5.775810">
        <ele>342.4</ele>
        <time>2009-12-17T16:48:52Z</time>
      </trkpt>
      <trkpt lat="38.861230" lon="-5.776040">
        <ele>340.9</ele>
        <time>2009-12-17T16:49:17Z</time>
      </trkpt>
      <trkpt lat="38.861260" lon="-5.776090">
        <ele>342.4</ele>
        <time>2009-12-17T16:49:23Z</time>
      </trkpt>
      <trkpt lat="38.861260" lon="-5.776090">
        <ele>342.8</ele>
        <time>2009-12-17T16:49:28Z</time>
      </trkpt>
      <trkpt lat="38.861330" lon="-5.776170">
        <ele>340.9</ele>
        <time>2009-12-17T16:49:48Z</time>
      </trkpt>
      <trkpt lat="38.861520" lon="-5.776280">
        <ele>339.0</ele>
        <time>2009-12-17T16:50:07Z</time>
      </trkpt>
      <trkpt lat="38.861610" lon="-5.776340">
        <ele>338.1</ele>
        <time>2009-12-17T16:50:21Z</time>
      </trkpt>
      <trkpt lat="38.861860" lon="-5.776610">
        <ele>335.2</ele>
        <time>2009-12-17T16:50:44Z</time>
      </trkpt>
      <trkpt lat="38.862200" lon="-5.776990">
        <ele>331.8</ele>
        <time>2009-12-17T16:51:14Z</time>
      </trkpt>
      <trkpt lat="38.862370" lon="-5.777100">
        <ele>332.3</ele>
        <time>2009-12-17T16:51:39Z</time>
      </trkpt>
      <trkpt lat="38.862420" lon="-5.777150">
        <ele>330.3</ele>
        <time>2009-12-17T16:51:44Z</time>
      </trkpt>
      <trkpt lat="38.862720" lon="-5.777530">
        <ele>330.3</ele>
        <time>2009-12-17T16:52:14Z</time>
      </trkpt>
      <trkpt lat="38.862810" lon="-5.777640">
        <ele>331.3</ele>
        <time>2009-12-17T16:52:38Z</time>
      </trkpt>
      <trkpt lat="38.862840" lon="-5.777660">
        <ele>331.8</ele>
        <time>2009-12-17T16:52:50Z</time>
      </trkpt>
      <trkpt lat="38.862880" lon="-5.777690">
        <ele>329.9</ele>
        <time>2009-12-17T16:52:55Z</time>
      </trkpt>
      <trkpt lat="38.862940" lon="-5.777740">
        <ele>331.3</ele>
        <time>2009-12-17T16:53:01Z</time>
      </trkpt>
      <trkpt lat="38.863130" lon="-5.777820">
        <ele>331.3</ele>
        <time>2009-12-17T16:53:26Z</time>
      </trkpt>
      <trkpt lat="38.863560" lon="-5.777870">
        <ele>333.2</ele>
        <time>2009-12-17T16:53:57Z</time>
      </trkpt>
      <trkpt lat="38.863840" lon="-5.777930">
        <ele>333.7</ele>
        <time>2009-12-17T16:54:18Z</time>
      </trkpt>
      <trkpt lat="38.863800" lon="-5.778310">
        <ele>335.2</ele>
        <time>2009-12-17T16:54:42Z</time>
      </trkpt>
      <trkpt lat="38.864040" lon="-5.778590">
        <ele>336.1</ele>
        <time>2009-12-17T16:55:09Z</time>
      </trkpt>
      <trkpt lat="38.864400" lon="-5.778830">
        <ele>336.6</ele>
        <time>2009-12-17T16:55:40Z</time>
      </trkpt>
      <trkpt lat="38.864430" lon="-5.778860">
        <ele>335.6</ele>
        <time>2009-12-17T16:55:43Z</time>
      </trkpt>
      <trkpt lat="38.864690" lon="-5.779310">
        <ele>336.1</ele>
        <time>2009-12-17T16:56:15Z</time>
      </trkpt>
      <trkpt lat="38.864950" lon="-5.779860">
        <ele>337.6</ele>
        <time>2009-12-17T16:56:52Z</time>
      </trkpt>
      <trkpt lat="38.865110" lon="-5.780190">
        <ele>340.0</ele>
        <time>2009-12-17T16:57:13Z</time>
      </trkpt>
      <trkpt lat="38.865150" lon="-5.780280">
        <ele>340.4</ele>
        <time>2009-12-17T16:57:19Z</time>
      </trkpt>
      <trkpt lat="38.865220" lon="-5.780440">
        <ele>337.1</ele>
        <time>2009-12-17T16:57:28Z</time>
      </trkpt>
      <trkpt lat="38.865510" lon="-5.780880">
        <ele>336.6</ele>
        <time>2009-12-17T16:57:58Z</time>
      </trkpt>
      <trkpt lat="38.865610" lon="-5.781080">
        <ele>334.7</ele>
        <time>2009-12-17T16:58:10Z</time>
      </trkpt>
      <trkpt lat="38.865710" lon="-5.781270">
        <ele>336.1</ele>
        <time>2009-12-17T16:58:22Z</time>
      </trkpt>
      <trkpt lat="38.865750" lon="-5.781320">
        <ele>337.1</ele>
        <time>2009-12-17T16:58:26Z</time>
      </trkpt>
      <trkpt lat="38.866150" lon="-5.781640">
        <ele>335.2</ele>
        <time>2009-12-17T16:58:59Z</time>
      </trkpt>
      <trkpt lat="38.866340" lon="-5.781730">
        <ele>336.6</ele>
        <time>2009-12-17T16:59:13Z</time>
      </trkpt>
      <trkpt lat="38.866490" lon="-5.781830">
        <ele>333.2</ele>
        <time>2009-12-17T16:59:25Z</time>
      </trkpt>
      <trkpt lat="38.866770" lon="-5.781950">
        <ele>335.6</ele>
        <time>2009-12-17T16:59:45Z</time>
      </trkpt>
      <trkpt lat="38.867090" lon="-5.782370">
        <ele>336.1</ele>
        <time>2009-12-17T17:00:18Z</time>
      </trkpt>
      <trkpt lat="38.867160" lon="-5.782770">
        <ele>339.5</ele>
        <time>2009-12-17T17:00:43Z</time>
      </trkpt>
      <trkpt lat="38.867150" lon="-5.782790">
        <ele>337.6</ele>
        <time>2009-12-17T17:01:12Z</time>
      </trkpt>
      <trkpt lat="38.867160" lon="-5.782760">
        <ele>337.6</ele>
        <time>2009-12-17T17:01:41Z</time>
      </trkpt>
      <trkpt lat="38.867190" lon="-5.782740">
        <ele>337.1</ele>
        <time>2009-12-17T17:02:43Z</time>
      </trkpt>
      <trkpt lat="38.867150" lon="-5.782800">
        <ele>337.1</ele>
        <time>2009-12-17T17:03:57Z</time>
      </trkpt>
      <trkpt lat="38.867140" lon="-5.782810">
        <ele>339.0</ele>
        <time>2009-12-17T17:04:03Z</time>
      </trkpt>
      <trkpt lat="38.867140" lon="-5.782840">
        <ele>340.0</ele>
        <time>2009-12-17T17:04:21Z</time>
      </trkpt>
      <trkpt lat="38.867350" lon="-5.783000">
        <ele>340.0</ele>
        <time>2009-12-17T17:04:41Z</time>
      </trkpt>
      <trkpt lat="38.867600" lon="-5.783370">
        <ele>340.9</ele>
        <time>2009-12-17T17:05:12Z</time>
      </trkpt>
      <trkpt lat="38.867920" lon="-5.783640">
        <ele>342.8</ele>
        <time>2009-12-17T17:05:43Z</time>
      </trkpt>
      <trkpt lat="38.868160" lon="-5.783850">
        <ele>346.2</ele>
        <time>2009-12-17T17:06:05Z</time>
      </trkpt>
      <trkpt lat="38.868180" lon="-5.783860">
        <ele>346.2</ele>
        <time>2009-12-17T17:06:06Z</time>
      </trkpt>
      <trkpt lat="38.868550" lon="-5.784160">
        <ele>348.1</ele>
        <time>2009-12-17T17:06:39Z</time>
      </trkpt>
      <trkpt lat="38.868910" lon="-5.784080">
        <ele>349.1</ele>
        <time>2009-12-17T17:07:08Z</time>
      </trkpt>
      <trkpt lat="38.869090" lon="-5.783940">
        <ele>349.1</ele>
        <time>2009-12-17T17:07:28Z</time>
      </trkpt>
      <trkpt lat="38.869530" lon="-5.783710">
        <ele>349.6</ele>
        <time>2009-12-17T17:08:02Z</time>
      </trkpt>
      <trkpt lat="38.870010" lon="-5.783580">
        <ele>350.1</ele>
        <time>2009-12-17T17:08:36Z</time>
      </trkpt>
      <trkpt lat="38.870450" lon="-5.783460">
        <ele>352.9</ele>
        <time>2009-12-17T17:09:08Z</time>
      </trkpt>
      <trkpt lat="38.870770" lon="-5.783440">
        <ele>353.4</ele>
        <time>2009-12-17T17:09:32Z</time>
      </trkpt>
      <trkpt lat="38.870890" lon="-5.783490">
        <ele>355.3</ele>
        <time>2009-12-17T17:09:43Z</time>
      </trkpt>
      <trkpt lat="38.870890" lon="-5.783480">
        <ele>354.4</ele>
        <time>2009-12-17T17:09:58Z</time>
      </trkpt>
      <trkpt lat="38.870970" lon="-5.783400">
        <ele>355.8</ele>
        <time>2009-12-17T17:10:09Z</time>
      </trkpt>
      <trkpt lat="38.871170" lon="-5.783270">
        <ele>357.7</ele>
        <time>2009-12-17T17:10:37Z</time>
      </trkpt>
      <trkpt lat="38.871500" lon="-5.783500">
        <ele>358.7</ele>
        <time>2009-12-17T17:11:05Z</time>
      </trkpt>
      <trkpt lat="38.871750" lon="-5.783940">
        <ele>360.2</ele>
        <time>2009-12-17T17:11:36Z</time>
      </trkpt>
      <trkpt lat="38.872000" lon="-5.784300">
        <ele>361.1</ele>
        <time>2009-12-17T17:12:04Z</time>
      </trkpt>
      <trkpt lat="38.872010" lon="-5.784310">
        <ele>361.1</ele>
        <time>2009-12-17T17:12:05Z</time>
      </trkpt>
      <trkpt lat="38.872330" lon="-5.784720">
        <ele>361.6</ele>
        <time>2009-12-17T17:12:40Z</time>
      </trkpt>
      <trkpt lat="38.872350" lon="-5.784770">
        <ele>360.2</ele>
        <time>2009-12-17T17:12:43Z</time>
      </trkpt>
      <trkpt lat="38.872620" lon="-5.785240">
        <ele>361.1</ele>
        <time>2009-12-17T17:13:16Z</time>
      </trkpt>
      <trkpt lat="38.872680" lon="-5.785330">
        <ele>361.1</ele>
        <time>2009-12-17T17:13:50Z</time>
      </trkpt>
      <trkpt lat="38.872880" lon="-5.785300">
        <ele>360.6</ele>
        <time>2009-12-17T17:21:40Z</time>
      </trkpt>
      <trkpt lat="38.873150" lon="-5.785170">
        <ele>362.6</ele>
        <time>2009-12-17T17:22:07Z</time>
      </trkpt>
      <trkpt lat="38.873550" lon="-5.785070">
        <ele>364.0</ele>
        <time>2009-12-17T17:22:37Z</time>
      </trkpt>
      <trkpt lat="38.874000" lon="-5.784960">
        <ele>364.5</ele>
        <time>2009-12-17T17:23:10Z</time>
      </trkpt>
      <trkpt lat="38.874450" lon="-5.785130">
        <ele>365.0</ele>
        <time>2009-12-17T17:23:44Z</time>
      </trkpt>
      <trkpt lat="38.874880" lon="-5.785520">
        <ele>365.4</ele>
        <time>2009-12-17T17:24:20Z</time>
      </trkpt>
      <trkpt lat="38.874970" lon="-5.785620">
        <ele>366.9</ele>
        <time>2009-12-17T17:25:45Z</time>
      </trkpt>
      <trkpt lat="38.875360" lon="-5.785850">
        <ele>366.9</ele>
        <time>2009-12-17T17:26:15Z</time>
      </trkpt>
      <trkpt lat="38.875810" lon="-5.786130">
        <ele>368.8</ele>
        <time>2009-12-17T17:26:50Z</time>
      </trkpt>
      <trkpt lat="38.876260" lon="-5.786390">
        <ele>369.8</ele>
        <time>2009-12-17T17:27:24Z</time>
      </trkpt>
      <trkpt lat="38.876670" lon="-5.786640">
        <ele>368.8</ele>
        <time>2009-12-17T17:27:57Z</time>
      </trkpt>
      <trkpt lat="38.876650" lon="-5.786680">
        <ele>368.8</ele>
        <time>2009-12-17T17:28:20Z</time>
      </trkpt>
      <trkpt lat="38.876670" lon="-5.786670">
        <ele>369.3</ele>
        <time>2009-12-17T17:28:42Z</time>
      </trkpt>
      <trkpt lat="38.876960" lon="-5.786770">
        <ele>366.9</ele>
        <time>2009-12-17T17:29:03Z</time>
      </trkpt>
      <trkpt lat="38.877460" lon="-5.786970">
        <ele>366.9</ele>
        <time>2009-12-17T17:29:38Z</time>
      </trkpt>
      <trkpt lat="38.877700" lon="-5.787060">
        <ele>369.3</ele>
        <time>2009-12-17T17:29:56Z</time>
      </trkpt>
      <trkpt lat="38.878060" lon="-5.787160">
        <ele>367.8</ele>
        <time>2009-12-17T17:30:26Z</time>
      </trkpt>
      <trkpt lat="38.878050" lon="-5.787170">
        <ele>368.8</ele>
        <time>2009-12-17T17:30:28Z</time>
      </trkpt>
      <trkpt lat="38.878140" lon="-5.787180">
        <ele>366.9</ele>
        <time>2009-12-17T17:30:58Z</time>
      </trkpt>
      <trkpt lat="38.878440" lon="-5.787250">
        <ele>365.9</ele>
        <time>2009-12-17T17:31:27Z</time>
      </trkpt>
      <trkpt lat="38.878750" lon="-5.787290">
        <ele>366.4</ele>
        <time>2009-12-17T17:32:05Z</time>
      </trkpt>
      <trkpt lat="38.879320" lon="-5.787330">
        <ele>364.5</ele>
        <time>2009-12-17T17:32:44Z</time>
      </trkpt>
      <trkpt lat="38.879910" lon="-5.787410">
        <ele>362.6</ele>
        <time>2009-12-17T17:33:24Z</time>
      </trkpt>
      <trkpt lat="38.880260" lon="-5.787470">
        <ele>363.0</ele>
        <time>2009-12-17T17:33:48Z</time>
      </trkpt>
      <trkpt lat="38.880580" lon="-5.787520">
        <ele>363.0</ele>
        <time>2009-12-17T17:34:12Z</time>
      </trkpt>
      <trkpt lat="38.881120" lon="-5.787650">
        <ele>363.0</ele>
        <time>2009-12-17T17:34:50Z</time>
      </trkpt>
      <trkpt lat="38.881450" lon="-5.787740">
        <ele>363.0</ele>
        <time>2009-12-17T17:35:20Z</time>
      </trkpt>
      <trkpt lat="38.881450" lon="-5.787710">
        <ele>363.0</ele>
        <time>2009-12-17T17:35:34Z</time>
      </trkpt>
      <trkpt lat="38.881830" lon="-5.787770">
        <ele>365.0</ele>
        <time>2009-12-17T17:36:03Z</time>
      </trkpt>
      <trkpt lat="38.882030" lon="-5.787810">
        <ele>364.5</ele>
        <time>2009-12-17T17:36:28Z</time>
      </trkpt>
      <trkpt lat="38.882370" lon="-5.787840">
        <ele>361.6</ele>
        <time>2009-12-17T17:36:52Z</time>
      </trkpt>
      <trkpt lat="38.882510" lon="-5.787860">
        <ele>360.2</ele>
        <time>2009-12-17T17:37:03Z</time>
      </trkpt>
      <trkpt lat="38.882950" lon="-5.787920">
        <ele>358.7</ele>
        <time>2009-12-17T17:37:33Z</time>
      </trkpt>
      <trkpt lat="38.883030" lon="-5.787940">
        <ele>358.2</ele>
        <time>2009-12-17T17:37:55Z</time>
      </trkpt>
      <trkpt lat="38.883020" lon="-5.787950">
        <ele>358.7</ele>
        <time>2009-12-17T17:37:56Z</time>
      </trkpt>
      <trkpt lat="38.883200" lon="-5.787950">
        <ele>357.3</ele>
        <time>2009-12-17T17:38:35Z</time>
      </trkpt>
      <trkpt lat="38.883380" lon="-5.787970">
        <ele>358.2</ele>
        <time>2009-12-17T17:38:51Z</time>
      </trkpt>
      <trkpt lat="38.883430" lon="-5.787960">
        <ele>357.3</ele>
        <time>2009-12-17T17:38:55Z</time>
      </trkpt>
      <trkpt lat="38.883580" lon="-5.787950">
        <ele>357.3</ele>
        <time>2009-12-17T17:39:16Z</time>
      </trkpt>
      <trkpt lat="38.883680" lon="-5.787960">
        <ele>357.7</ele>
        <time>2009-12-17T17:40:06Z</time>
      </trkpt>
      <trkpt lat="38.884040" lon="-5.787950">
        <ele>357.7</ele>
        <time>2009-12-17T17:40:32Z</time>
      </trkpt>
      <trkpt lat="38.884560" lon="-5.787900">
        <ele>358.7</ele>
        <time>2009-12-17T17:41:07Z</time>
      </trkpt>
      <trkpt lat="38.885120" lon="-5.788010">
        <ele>357.7</ele>
        <time>2009-12-17T17:41:46Z</time>
      </trkpt>
      <trkpt lat="38.885660" lon="-5.788320">
        <ele>359.2</ele>
        <time>2009-12-17T17:42:28Z</time>
      </trkpt>
      <trkpt lat="38.886010" lon="-5.788560">
        <ele>361.1</ele>
        <time>2009-12-17T17:42:57Z</time>
      </trkpt>
      <trkpt lat="38.886370" lon="-5.788780">
        <ele>364.5</ele>
        <time>2009-12-17T17:43:26Z</time>
      </trkpt>
      <trkpt lat="38.886740" lon="-5.788890">
        <ele>365.9</ele>
        <time>2009-12-17T17:43:58Z</time>
      </trkpt>
      <trkpt lat="38.886920" lon="-5.788950">
        <ele>365.9</ele>
        <time>2009-12-17T17:44:26Z</time>
      </trkpt>
      <trkpt lat="38.887120" lon="-5.789020">
        <ele>365.9</ele>
        <time>2009-12-17T17:44:52Z</time>
      </trkpt>
      <trkpt lat="38.887800" lon="-5.789270">
        <ele>364.0</ele>
        <time>2009-12-17T17:45:39Z</time>
      </trkpt>
      <trkpt lat="38.888380" lon="-5.789550">
        <ele>363.5</ele>
        <time>2009-12-17T17:46:21Z</time>
      </trkpt>
      <trkpt lat="38.889010" lon="-5.789820">
        <ele>361.1</ele>
        <time>2009-12-17T17:47:06Z</time>
      </trkpt>
      <trkpt lat="38.889610" lon="-5.790020">
        <ele>360.6</ele>
        <time>2009-12-17T17:47:48Z</time>
      </trkpt>
      <trkpt lat="38.890160" lon="-5.790230">
        <ele>359.2</ele>
        <time>2009-12-17T17:48:28Z</time>
      </trkpt>
      <trkpt lat="38.890520" lon="-5.790370">
        <ele>358.7</ele>
        <time>2009-12-17T17:48:54Z</time>
      </trkpt>
      <trkpt lat="38.891100" lon="-5.790530">
        <ele>358.2</ele>
        <time>2009-12-17T17:49:35Z</time>
      </trkpt>
      <trkpt lat="38.891310" lon="-5.790550">
        <ele>358.7</ele>
        <time>2009-12-17T17:49:51Z</time>
      </trkpt>
      <trkpt lat="38.891510" lon="-5.790550">
        <ele>358.2</ele>
        <time>2009-12-17T17:50:56Z</time>
      </trkpt>
      <trkpt lat="38.891510" lon="-5.790580">
        <ele>358.2</ele>
        <time>2009-12-17T17:51:33Z</time>
      </trkpt>
      <trkpt lat="38.891610" lon="-5.790620">
        <ele>357.3</ele>
        <time>2009-12-17T17:52:02Z</time>
      </trkpt>
      <trkpt lat="38.891990" lon="-5.790780">
        <ele>357.7</ele>
        <time>2009-12-17T17:52:33Z</time>
      </trkpt>
      <trkpt lat="38.892440" lon="-5.791020">
        <ele>356.8</ele>
        <time>2009-12-17T17:53:08Z</time>
      </trkpt>
      <trkpt lat="38.892890" lon="-5.791250">
        <ele>357.3</ele>
        <time>2009-12-17T17:53:42Z</time>
      </trkpt>
      <trkpt lat="38.893480" lon="-5.791460">
        <ele>355.8</ele>
        <time>2009-12-17T17:54:25Z</time>
      </trkpt>
      <trkpt lat="38.893990" lon="-5.791420">
        <ele>354.9</ele>
        <time>2009-12-17T17:55:01Z</time>
      </trkpt>
      <trkpt lat="38.894430" lon="-5.791350">
        <ele>351.5</ele>
        <time>2009-12-17T17:55:34Z</time>
      </trkpt>
      <trkpt lat="38.894900" lon="-5.791420">
        <ele>349.1</ele>
        <time>2009-12-17T17:56:08Z</time>
      </trkpt>
      <trkpt lat="38.895250" lon="-5.791480">
        <ele>346.2</ele>
        <time>2009-12-17T17:56:33Z</time>
      </trkpt>
      <trkpt lat="38.895730" lon="-5.791570">
        <ele>344.3</ele>
        <time>2009-12-17T17:57:07Z</time>
      </trkpt>
      <trkpt lat="38.896250" lon="-5.791720">
        <ele>342.8</ele>
        <time>2009-12-17T17:57:45Z</time>
      </trkpt>
      <trkpt lat="38.896710" lon="-5.791910">
        <ele>341.4</ele>
        <time>2009-12-17T17:58:18Z</time>
      </trkpt>
      <trkpt lat="38.897150" lon="-5.792080">
        <ele>338.1</ele>
        <time>2009-12-17T17:58:51Z</time>
      </trkpt>
      <trkpt lat="38.897620" lon="-5.792260">
        <ele>336.6</ele>
        <time>2009-12-17T17:59:26Z</time>
      </trkpt>
      <trkpt lat="38.898120" lon="-5.792450">
        <ele>334.2</ele>
        <time>2009-12-17T18:00:02Z</time>
      </trkpt>
      <trkpt lat="38.898630" lon="-5.792610">
        <ele>334.2</ele>
        <time>2009-12-17T18:00:37Z</time>
      </trkpt>
      <trkpt lat="38.899110" lon="-5.792710">
        <ele>333.7</ele>
        <time>2009-12-17T18:01:10Z</time>
      </trkpt>
      <trkpt lat="38.899570" lon="-5.792870">
        <ele>330.8</ele>
        <time>2009-12-17T18:01:43Z</time>
      </trkpt>
      <trkpt lat="38.899980" lon="-5.793100">
        <ele>328.4</ele>
        <time>2009-12-17T18:02:14Z</time>
      </trkpt>
      <trkpt lat="38.900430" lon="-5.793230">
        <ele>328.4</ele>
        <time>2009-12-17T18:02:45Z</time>
      </trkpt>
      <trkpt lat="38.900800" lon="-5.793460">
        <ele>327.5</ele>
        <time>2009-12-17T18:03:14Z</time>
      </trkpt>
      <trkpt lat="38.901220" lon="-5.793590">
        <ele>327.5</ele>
        <time>2009-12-17T18:03:44Z</time>
      </trkpt>
      <trkpt lat="38.901640" lon="-5.793770">
        <ele>328.4</ele>
        <time>2009-12-17T18:04:14Z</time>
      </trkpt>
      <trkpt lat="38.901900" lon="-5.793920">
        <ele>327.9</ele>
        <time>2009-12-17T18:04:36Z</time>
      </trkpt>
      <trkpt lat="38.902020" lon="-5.793990">
        <ele>326.0</ele>
        <time>2009-12-17T18:04:45Z</time>
      </trkpt>
      <trkpt lat="38.902430" lon="-5.794290">
        <ele>325.1</ele>
        <time>2009-12-17T18:05:15Z</time>
      </trkpt>
      <trkpt lat="38.902910" lon="-5.794660">
        <ele>325.1</ele>
        <time>2009-12-17T18:05:53Z</time>
      </trkpt>
      <trkpt lat="38.903260" lon="-5.794980">
        <ele>325.6</ele>
        <time>2009-12-17T18:06:23Z</time>
      </trkpt>
      <trkpt lat="38.903770" lon="-5.795240">
        <ele>326.5</ele>
        <time>2009-12-17T18:07:01Z</time>
      </trkpt>
      <trkpt lat="38.904100" lon="-5.795340">
        <ele>325.1</ele>
        <time>2009-12-17T18:07:33Z</time>
      </trkpt>
      <trkpt lat="38.904270" lon="-5.795360">
        <ele>325.1</ele>
        <time>2009-12-17T18:08:43Z</time>
      </trkpt>
      <trkpt lat="38.904440" lon="-5.795400">
        <ele>325.1</ele>
        <time>2009-12-17T18:09:12Z</time>
      </trkpt>
      <trkpt lat="38.904790" lon="-5.795520">
        <ele>324.6</ele>
        <time>2009-12-17T18:09:39Z</time>
      </trkpt>
      <trkpt lat="38.905210" lon="-5.795830">
        <ele>323.6</ele>
        <time>2009-12-17T18:10:14Z</time>
      </trkpt>
      <trkpt lat="38.905710" lon="-5.796050">
        <ele>323.6</ele>
        <time>2009-12-17T18:10:51Z</time>
      </trkpt>
      <trkpt lat="38.906020" lon="-5.796140">
        <ele>322.7</ele>
        <time>2009-12-17T18:11:21Z</time>
      </trkpt>
      <trkpt lat="38.905960" lon="-5.796060">
        <ele>323.1</ele>
        <time>2009-12-17T18:11:41Z</time>
      </trkpt>
      <trkpt lat="38.905970" lon="-5.796090">
        <ele>323.1</ele>
        <time>2009-12-17T18:11:46Z</time>
      </trkpt>
      <trkpt lat="38.906080" lon="-5.796260">
        <ele>323.6</ele>
        <time>2009-12-17T18:12:07Z</time>
      </trkpt>
      <trkpt lat="38.906120" lon="-5.796440">
        <ele>323.1</ele>
        <time>2009-12-17T18:12:27Z</time>
      </trkpt>
      <trkpt lat="38.906170" lon="-5.796660">
        <ele>324.1</ele>
        <time>2009-12-17T18:13:07Z</time>
      </trkpt>
      <trkpt lat="38.906230" lon="-5.797040">
        <ele>323.6</ele>
        <time>2009-12-17T18:13:39Z</time>
      </trkpt>
      <trkpt lat="38.906190" lon="-5.797320">
        <ele>324.1</ele>
        <time>2009-12-17T18:14:04Z</time>
      </trkpt>
      <trkpt lat="38.906090" lon="-5.797730">
        <ele>324.1</ele>
        <time>2009-12-17T18:14:28Z</time>
      </trkpt>
      <trkpt lat="38.906150" lon="-5.797810">
        <ele>324.1</ele>
        <time>2009-12-17T18:14:42Z</time>
      </trkpt>
      <trkpt lat="38.906200" lon="-5.797910">
        <ele>325.6</ele>
        <time>2009-12-17T18:15:03Z</time>
      </trkpt>
      <trkpt lat="38.906250" lon="-5.797940">
        <ele>324.6</ele>
        <time>2009-12-17T18:15:31Z</time>
      </trkpt>
      <trkpt lat="38.906290" lon="-5.797950">
        <ele>322.7</ele>
        <time>2009-12-17T18:16:02Z</time>
      </trkpt>
      <trkpt lat="38.906490" lon="-5.798070">
        <ele>323.6</ele>
        <time>2009-12-17T18:16:40Z</time>
      </trkpt>
      <trkpt lat="38.906900" lon="-5.798370">
        <ele>323.1</ele>
        <time>2009-12-17T18:17:14Z</time>
      </trkpt>
      <trkpt lat="38.907360" lon="-5.798890">
        <ele>323.6</ele>
        <time>2009-12-17T18:17:56Z</time>
      </trkpt>
      <trkpt lat="38.907770" lon="-5.799100">
        <ele>323.6</ele>
        <time>2009-12-17T18:18:26Z</time>
      </trkpt>
      <trkpt lat="38.908250" lon="-5.799320">
        <ele>324.1</ele>
        <time>2009-12-17T18:19:01Z</time>
      </trkpt>
      <trkpt lat="38.908480" lon="-5.799020">
        <ele>323.6</ele>
        <time>2009-12-17T18:19:27Z</time>
      </trkpt>
      <trkpt lat="38.908530" lon="-5.798860">
        <ele>322.2</ele>
        <time>2009-12-17T18:19:36Z</time>
      </trkpt>
      <trkpt lat="38.908530" lon="-5.798820">
        <ele>323.1</ele>
        <time>2009-12-17T18:19:38Z</time>
      </trkpt>
      <trkpt lat="38.908690" lon="-5.798350">
        <ele>320.7</ele>
        <time>2009-12-17T18:20:06Z</time>
      </trkpt>
      <trkpt lat="38.908920" lon="-5.797980">
        <ele>318.8</ele>
        <time>2009-12-17T18:20:33Z</time>
      </trkpt>
      <trkpt lat="38.909420" lon="-5.797890">
        <ele>317.8</ele>
        <time>2009-12-17T18:21:08Z</time>
      </trkpt>
      <trkpt lat="38.909850" lon="-5.797980">
        <ele>316.4</ele>
        <time>2009-12-17T18:21:38Z</time>
      </trkpt>
      <trkpt lat="38.910400" lon="-5.798190">
        <ele>315.4</ele>
        <time>2009-12-17T18:22:18Z</time>
      </trkpt>
      <trkpt lat="38.910870" lon="-5.798450">
        <ele>315.4</ele>
        <time>2009-12-17T18:22:53Z</time>
      </trkpt>
      <trkpt lat="38.911380" lon="-5.798760">
        <ele>314.0</ele>
        <time>2009-12-17T18:23:32Z</time>
      </trkpt>
      <trkpt lat="38.911860" lon="-5.799060">
        <ele>314.0</ele>
        <time>2009-12-17T18:24:09Z</time>
      </trkpt>
      <trkpt lat="38.912150" lon="-5.799480">
        <ele>315.0</ele>
        <time>2009-12-17T18:24:44Z</time>
      </trkpt>
      <trkpt lat="38.912150" lon="-5.799500">
        <ele>315.0</ele>
        <time>2009-12-17T18:24:47Z</time>
      </trkpt>
      <trkpt lat="38.912310" lon="-5.799620">
        <ele>315.4</ele>
        <time>2009-12-17T18:25:08Z</time>
      </trkpt>
      <trkpt lat="38.912490" lon="-5.799780">
        <ele>315.0</ele>
        <time>2009-12-17T18:25:27Z</time>
      </trkpt>
      <trkpt lat="38.912950" lon="-5.799940">
        <ele>312.1</ele>
        <time>2009-12-17T18:26:01Z</time>
      </trkpt>
      <trkpt lat="38.913030" lon="-5.799980">
        <ele>312.6</ele>
        <time>2009-12-17T18:26:24Z</time>
      </trkpt>
      <trkpt lat="38.913070" lon="-5.799990">
        <ele>311.6</ele>
        <time>2009-12-17T18:26:48Z</time>
      </trkpt>
      <trkpt lat="38.913530" lon="-5.799970">
        <ele>311.6</ele>
        <time>2009-12-17T18:27:20Z</time>
      </trkpt>
      <trkpt lat="38.913750" lon="-5.799950">
        <ele>312.1</ele>
        <time>2009-12-17T18:27:51Z</time>
      </trkpt>
      <trkpt lat="38.914010" lon="-5.799960">
        <ele>311.6</ele>
        <time>2009-12-17T18:28:42Z</time>
      </trkpt>
      <trkpt lat="38.914370" lon="-5.799940">
        <ele>311.6</ele>
        <time>2009-12-17T18:29:08Z</time>
      </trkpt>
      <trkpt lat="38.914780" lon="-5.799900">
        <ele>312.1</ele>
        <time>2009-12-17T18:29:37Z</time>
      </trkpt>
      <trkpt lat="38.915240" lon="-5.799850">
        <ele>311.1</ele>
        <time>2009-12-17T18:30:09Z</time>
      </trkpt>
      <trkpt lat="38.915770" lon="-5.799740">
        <ele>311.6</ele>
        <time>2009-12-17T18:30:46Z</time>
      </trkpt>
      <trkpt lat="38.916190" lon="-5.799640">
        <ele>311.6</ele>
        <time>2009-12-17T18:31:18Z</time>
      </trkpt>
      <trkpt lat="38.916690" lon="-5.799530">
        <ele>312.1</ele>
        <time>2009-12-17T18:31:55Z</time>
      </trkpt>
      <trkpt lat="38.917180" lon="-5.799420">
        <ele>311.6</ele>
        <time>2009-12-17T18:32:31Z</time>
      </trkpt>
      <trkpt lat="38.917600" lon="-5.799500">
        <ele>311.6</ele>
        <time>2009-12-17T18:33:04Z</time>
      </trkpt>
      <trkpt lat="38.917750" lon="-5.799980">
        <ele>311.1</ele>
        <time>2009-12-17T18:33:34Z</time>
      </trkpt>
      <trkpt lat="38.917810" lon="-5.800180">
        <ele>311.1</ele>
        <time>2009-12-17T18:33:46Z</time>
      </trkpt>
      <trkpt lat="38.918180" lon="-5.800310">
        <ele>310.7</ele>
        <time>2009-12-17T18:34:14Z</time>
      </trkpt>
      <trkpt lat="38.918590" lon="-5.800430">
        <ele>311.1</ele>
        <time>2009-12-17T18:34:44Z</time>
      </trkpt>
      <trkpt lat="38.918770" lon="-5.800490">
        <ele>311.1</ele>
        <time>2009-12-17T18:34:57Z</time>
      </trkpt>
      <trkpt lat="38.918790" lon="-5.800490">
        <ele>311.1</ele>
        <time>2009-12-17T18:34:59Z</time>
      </trkpt>
      <trkpt lat="38.919050" lon="-5.800620">
        <ele>312.1</ele>
        <time>2009-12-17T18:35:22Z</time>
      </trkpt>
      <trkpt lat="38.919450" lon="-5.800780">
        <ele>311.6</ele>
        <time>2009-12-17T18:35:53Z</time>
      </trkpt>
      <trkpt lat="38.919600" lon="-5.800800">
        <ele>312.1</ele>
        <time>2009-12-17T18:36:09Z</time>
      </trkpt>
    </trkseg>
  </trk></gpx>